Wetterdaten: Montag, 20.04.2026
Datum Zeit Temp. Aussen Temp. o. S. Temp +5cm Feuchte Auss Luftdruck Regen Sonnenschein Solar Windböen Empfang
20.04.2026 00:00 8,7 °C 7,2 °C 4,4 °C 83 % 1022,6 hPa 0,0 l/m² 0 min 0 W/m² 3,2 km/h (1 Bft) 100,00 %
20.04.2026 00:02 8,7 °C 7,2 °C 4,4 °C 83 % 1022,7 hPa 0,0 l/m² 0 min 0 W/m² 0,0 km/h (0 Bft) 97,78 %
20.04.2026 00:04 8,6 °C 7,2 °C 4,4 °C 83 % 1022,7 hPa 0,0 l/m² 0 min 0 W/m² 3,2 km/h (1 Bft) 95,74 %
20.04.2026 00:12 8,5 °C 6,7 °C 3,9 °C 84 % 1022,7 hPa 0,0 l/m² 0 min 0 W/m² 0,0 km/h (0 Bft) 98,85 %
20.04.2026 00:14 8,5 °C 6,7 °C 3,9 °C 84 % 1022,6 hPa 0,0 l/m² 0 min 0 W/m² 0,0 km/h (0 Bft) 100,00 %
20.04.2026 00:16 8,4 °C 6,7 °C 3,9 °C 84 % 1022,6 hPa 0,0 l/m² 0 min 0 W/m² 0,0 km/h (0 Bft) 100,00 %
20.04.2026 00:18 8,4 °C 6,7 °C 3,9 °C 84 % 1022,6 hPa 0,0 l/m² 0 min 0 W/m² 0,0 km/h (0 Bft) 100,00 %
20.04.2026 00:20 8,4 °C 6,7 °C 3,9 °C 84 % 1022,6 hPa 0,0 l/m² 0 min 0 W/m² 0,0 km/h (0 Bft) 100,00 %
20.04.2026 00:22 8,3 °C 6,7 °C 3,9 °C 84 % 1022,5 hPa 0,0 l/m² 0 min 0 W/m² 0,0 km/h (0 Bft) 100,00 %
20.04.2026 00:24 8,3 °C 6,7 °C 3,9 °C 84 % 1022,5 hPa 0,0 l/m² 0 min 0 W/m² 0,0 km/h (0 Bft) 97,87 %
20.04.2026 00:26 8,3 °C 6,7 °C 3,3 °C 84 % 1022,5 hPa 0,0 l/m² 0 min 0 W/m² 0,0 km/h (0 Bft) 100,00 %
20.04.2026 00:28 8,2 °C 6,7 °C 3,3 °C 84 % 1022,6 hPa 0,0 l/m² 0 min 0 W/m² 0,0 km/h (0 Bft) 98,00 %
20.04.2026 00:30 8,2 °C 6,7 °C 3,3 °C 84 % 1022,6 hPa 0,0 l/m² 0 min 0 W/m² 0,0 km/h (0 Bft) 100,00 %
20.04.2026 00:32 8,2 °C 6,1 °C 3,3 °C 84 % 1022,6 hPa 0,0 l/m² 0 min 0 W/m² 0,0 km/h (0 Bft) 94,74 %
20.04.2026 00:34 8,2 °C 6,1 °C 3,3 °C 84 % 1022,6 hPa 0,0 l/m² 0 min 0 W/m² 0,0 km/h (0 Bft) 97,87 %
20.04.2026 00:36 8,1 °C 6,1 °C 3,3 °C 84 % 1022,6 hPa 0,0 l/m² 0 min 0 W/m² 0,0 km/h (0 Bft) 97,87 %
20.04.2026 00:38 8,1 °C 6,1 °C 3,3 °C 85 % 1022,6 hPa 0,0 l/m² 0 min 0 W/m² 0,0 km/h (0 Bft) 97,83 %
20.04.2026 00:40 8,1 °C 6,1 °C 3,3 °C 85 % 1022,7 hPa 0,0 l/m² 0 min 0 W/m² 0,0 km/h (0 Bft) 97,87 %
20.04.2026 00:42 8,0 °C 6,1 °C 3,3 °C 84 % 1022,6 hPa 0,0 l/m² 0 min 0 W/m² 0,0 km/h (0 Bft) 95,74 %
20.04.2026 00:44 7,9 °C 6,1 °C 3,3 °C 85 % 1022,6 hPa 0,0 l/m² 0 min 0 W/m² 0,0 km/h (0 Bft) 97,87 %
20.04.2026 00:46 7,9 °C 6,1 °C 3,3 °C 85 % 1022,6 hPa 0,0 l/m² 0 min 0 W/m² 0,0 km/h (0 Bft) 93,62 %
20.04.2026 00:48 7,9 °C 6,1 °C 3,3 °C 85 % 1022,6 hPa 0,0 l/m² 0 min 0 W/m² 0,0 km/h (0 Bft) 94,00 %
20.04.2026 00:50 7,8 °C 6,1 °C 2,8 °C 85 % 1022,6 hPa 0,0 l/m² 0 min 0 W/m² 3,2 km/h (1 Bft) 95,74 %
20.04.2026 00:52 7,8 °C 6,1 °C 2,8 °C 85 % 1022,6 hPa 0,0 l/m² 0 min 0 W/m² 0,0 km/h (0 Bft) 95,74 %
20.04.2026 00:54 7,7 °C 6,1 °C 2,8 °C 85 % 1022,7 hPa 0,0 l/m² 0 min 0 W/m² 0,0 km/h (0 Bft) 95,92 %
20.04.2026 00:56 7,7 °C 6,1 °C 2,8 °C 85 % 1022,6 hPa 0,0 l/m² 0 min 0 W/m² 0,0 km/h (0 Bft) 94,00 %
20.04.2026 00:58 7,6 °C 6,1 °C 2,8 °C 85 % 1022,6 hPa 0,0 l/m² 0 min 0 W/m² 0,0 km/h (0 Bft) 97,14 %
20.04.2026 01:00 7,6 °C 6,1 °C 2,8 °C 85 % 1022,6 hPa 0,0 l/m² 0 min 0 W/m² 3,2 km/h (1 Bft) 97,87 %
20.04.2026 01:02 7,6 °C 6,1 °C 2,8 °C 86 % 1022,6 hPa 0,0 l/m² 0 min 0 W/m² 3,2 km/h (1 Bft) 92,00 %
20.04.2026 01:04 7,6 °C 6,1 °C 2,8 °C 86 % 1022,6 hPa 0,0 l/m² 0 min 0 W/m² 3,2 km/h (1 Bft) 98,15 %
20.04.2026 01:06 7,5 °C 6,1 °C 2,8 °C 86 % 1022,6 hPa 0,0 l/m² 0 min 0 W/m² 0,0 km/h (0 Bft) 97,62 %
20.04.2026 01:08 7,4 °C 6,1 °C 2,8 °C 86 % 1022,6 hPa 0,0 l/m² 0 min 0 W/m² 0,0 km/h (0 Bft) 96,15 %
20.04.2026 01:10 7,4 °C 5,6 °C 2,8 °C 86 % 1022,6 hPa 0,0 l/m² 0 min 0 W/m² 0,0 km/h (0 Bft) 97,87 %
20.04.2026 01:12 7,4 °C 5,6 °C 2,8 °C 86 % 1022,6 hPa 0,0 l/m² 0 min 0 W/m² 3,2 km/h (1 Bft) 97,87 %
20.04.2026 01:14 7,3 °C 5,6 °C 2,8 °C 86 % 1022,7 hPa 0,0 l/m² 0 min 0 W/m² 0,0 km/h (0 Bft) 97,87 %
20.04.2026 01:16 7,3 °C 5,6 °C 2,8 °C 86 % 1022,6 hPa 0,0 l/m² 0 min 0 W/m² 3,2 km/h (1 Bft) 97,87 %
20.04.2026 01:18 7,3 °C 5,6 °C 2,8 °C 86 % 1022,7 hPa 0,0 l/m² 0 min 0 W/m² 3,2 km/h (1 Bft) 95,74 %
20.04.2026 01:20 7,2 °C 5,6 °C 2,8 °C 86 % 1022,7 hPa 0,0 l/m² 0 min 0 W/m² 3,2 km/h (1 Bft) 97,87 %
20.04.2026 01:22 7,2 °C 5,6 °C 2,8 °C 86 % 1022,7 hPa 0,0 l/m² 0 min 0 W/m² 6,4 km/h (2 Bft) 95,74 %
20.04.2026 01:24 7,1 °C 5,6 °C 2,8 °C 86 % 1022,7 hPa 0,0 l/m² 0 min 0 W/m² 0,0 km/h (0 Bft) 97,83 %
20.04.2026 01:26 7,1 °C 5,6 °C 2,8 °C 87 % 1022,8 hPa 0,0 l/m² 0 min 0 W/m² 0,0 km/h (0 Bft) 97,87 %
20.04.2026 01:28 7,1 °C 5,6 °C 2,8 °C 87 % 1022,7 hPa 0,0 l/m² 0 min 0 W/m² 3,2 km/h (1 Bft) 95,74 %
20.04.2026 01:30 7,0 °C 5,6 °C 2,8 °C 87 % 1022,8 hPa 0,0 l/m² 0 min 0 W/m² 3,2 km/h (1 Bft) 97,87 %
20.04.2026 01:32 7,0 °C 5,6 °C 2,2 °C 87 % 1022,8 hPa 0,0 l/m² 0 min 0 W/m² 0,0 km/h (0 Bft) 100,00 %
20.04.2026 01:34 6,9 °C 5,6 °C 2,2 °C 87 % 1022,8 hPa 0,0 l/m² 0 min 0 W/m² 0,0 km/h (0 Bft) 97,87 %
20.04.2026 01:36 6,9 °C 5,6 °C 2,2 °C 87 % 1022,8 hPa 0,0 l/m² 0 min 0 W/m² 6,4 km/h (2 Bft) 97,87 %
20.04.2026 01:38 6,8 °C 5,6 °C 2,8 °C 87 % 1022,7 hPa 0,0 l/m² 0 min 0 W/m² 3,2 km/h (1 Bft) 97,87 %
20.04.2026 01:40 6,8 °C 5,6 °C 2,8 °C 87 % 1022,8 hPa 0,0 l/m² 0 min 0 W/m² 3,2 km/h (1 Bft) 97,14 %
20.04.2026 01:42 6,8 °C 5,6 °C 2,8 °C 88 % 1022,7 hPa 0,0 l/m² 0 min 0 W/m² 3,2 km/h (1 Bft) 98,00 %
20.04.2026 01:44 6,8 °C 5,6 °C 2,8 °C 88 % 1022,7 hPa 0,0 l/m² 0 min 0 W/m² 12,9 km/h (3 Bft) 97,83 %
20.04.2026 01:46 6,8 °C 5,6 °C 2,8 °C 88 % 1022,7 hPa 0,0 l/m² 0 min 0 W/m² 3,2 km/h (1 Bft) 96,30 %
20.04.2026 01:48 6,7 °C 5,6 °C 2,8 °C 88 % 1022,7 hPa 0,0 l/m² 0 min 0 W/m² 9,7 km/h (2 Bft) 97,92 %
20.04.2026 01:50 6,7 °C 5,6 °C 2,8 °C 88 % 1022,7 hPa 0,0 l/m² 0 min 0 W/m² 9,7 km/h (2 Bft) 95,74 %
20.04.2026 01:52 6,7 °C 5,6 °C 2,8 °C 88 % 1022,7 hPa 0,0 l/m² 0 min 0 W/m² 6,4 km/h (2 Bft) 97,87 %
20.04.2026 01:54 6,7 °C 5,6 °C 2,8 °C 88 % 1022,6 hPa 0,0 l/m² 0 min 0 W/m² 3,2 km/h (1 Bft) 95,74 %
20.04.2026 01:56 6,7 °C 5,6 °C 2,8 °C 88 % 1022,7 hPa 0,0 l/m² 0 min 0 W/m² 6,4 km/h (2 Bft) 97,87 %
20.04.2026 01:58 6,7 °C 5,6 °C 2,8 °C 88 % 1022,6 hPa 0,0 l/m² 0 min 0 W/m² 6,4 km/h (2 Bft) 97,83 %
20.04.2026 02:00 6,7 °C 5,6 °C 2,8 °C 88 % 1022,6 hPa 0,0 l/m² 0 min 0 W/m² 3,2 km/h (1 Bft) 95,74 %
20.04.2026 02:02 6,6 °C 5,6 °C 2,8 °C 88 % 1022,6 hPa 0,0 l/m² 0 min 0 W/m² 3,2 km/h (1 Bft) 97,87 %
20.04.2026 02:04 6,6 °C 5,6 °C 2,8 °C 89 % 1022,6 hPa 0,0 l/m² 0 min 0 W/m² 9,7 km/h (2 Bft) 94,74 %
20.04.2026 02:06 6,6 °C 5,6 °C 2,8 °C 89 % 1022,6 hPa 0,0 l/m² 0 min 0 W/m² 3,2 km/h (1 Bft) 95,74 %
20.04.2026 02:08 6,6 °C 5,6 °C 2,8 °C 89 % 1022,6 hPa 0,0 l/m² 0 min 0 W/m² 0,0 km/h (0 Bft) 97,87 %
20.04.2026 02:10 6,6 °C 5,6 °C 2,8 °C 89 % 1022,5 hPa 0,0 l/m² 0 min 0 W/m² 3,2 km/h (1 Bft) 95,74 %
20.04.2026 02:12 6,6 °C 5,6 °C 2,8 °C 89 % 1022,5 hPa 0,0 l/m² 0 min 0 W/m² 6,4 km/h (2 Bft) 95,74 %
20.04.2026 02:14 6,6 °C 5,6 °C 2,8 °C 89 % 1022,4 hPa 0,0 l/m² 0 min 0 W/m² 3,2 km/h (1 Bft) 95,74 %
20.04.2026 02:16 6,6 °C 5,6 °C 2,8 °C 89 % 1022,4 hPa 0,0 l/m² 0 min 0 W/m² 3,2 km/h (1 Bft) 95,65 %
20.04.2026 02:18 6,6 °C 5,6 °C 2,8 °C 89 % 1022,4 hPa 0,0 l/m² 0 min 0 W/m² 0,0 km/h (0 Bft) 95,74 %
20.04.2026 02:20 6,6 °C 5,6 °C 2,2 °C 89 % 1022,4 hPa 0,0 l/m² 0 min 0 W/m² 3,2 km/h (1 Bft) 96,00 %
20.04.2026 02:22 6,5 °C 5,6 °C 2,2 °C 89 % 1022,4 hPa 0,0 l/m² 0 min 0 W/m² 0,0 km/h (0 Bft) 95,74 %
20.04.2026 02:24 6,5 °C 5,6 °C 2,2 °C 89 % 1022,4 hPa 0,0 l/m² 0 min 0 W/m² 3,2 km/h (1 Bft) 95,74 %
20.04.2026 02:26 6,5 °C 5,6 °C 2,2 °C 89 % 1022,4 hPa 0,0 l/m² 0 min 0 W/m² 6,4 km/h (2 Bft) 97,87 %
20.04.2026 02:28 6,5 °C 5,6 °C 2,2 °C 89 % 1022,4 hPa 0,0 l/m² 0 min 0 W/m² 3,2 km/h (1 Bft) 100,00 %
20.04.2026 02:30 6,5 °C 5,6 °C 2,2 °C 89 % 1022,3 hPa 0,0 l/m² 0 min 0 W/m² 3,2 km/h (1 Bft) 96,00 %
20.04.2026 02:32 6,5 °C 5,6 °C 2,2 °C 89 % 1022,3 hPa 0,0 l/m² 0 min 0 W/m² 6,4 km/h (2 Bft) 98,18 %
20.04.2026 02:34 6,5 °C 5,6 °C 2,2 °C 89 % 1022,3 hPa 0,0 l/m² 0 min 0 W/m² 6,4 km/h (2 Bft) 97,87 %
20.04.2026 02:36 6,4 °C 5,6 °C 2,2 °C 89 % 1022,3 hPa 0,0 l/m² 0 min 0 W/m² 3,2 km/h (1 Bft) 100,00 %
20.04.2026 02:38 6,4 °C 5,6 °C 2,2 °C 89 % 1022,4 hPa 0,0 l/m² 0 min 0 W/m² 3,2 km/h (1 Bft) 100,00 %
20.04.2026 02:40 6,4 °C 5,6 °C 2,2 °C 89 % 1022,4 hPa 0,0 l/m² 0 min 0 W/m² 0,0 km/h (0 Bft) 97,87 %
20.04.2026 02:42 6,4 °C 5,6 °C 2,2 °C 89 % 1022,3 hPa 0,0 l/m² 0 min 0 W/m² 3,2 km/h (1 Bft) 100,00 %
20.04.2026 02:44 6,4 °C 5,6 °C 2,2 °C 89 % 1022,3 hPa 0,0 l/m² 0 min 0 W/m² 0,0 km/h (0 Bft) 100,00 %
20.04.2026 02:46 6,4 °C 5,0 °C 2,2 °C 89 % 1022,4 hPa 0,0 l/m² 0 min 0 W/m² 6,4 km/h (2 Bft) 96,00 %
20.04.2026 02:48 6,4 °C 5,0 °C 2,2 °C 89 % 1022,4 hPa 0,0 l/m² 0 min 0 W/m² 3,2 km/h (1 Bft) 97,96 %
20.04.2026 02:50 6,4 °C 5,0 °C 2,2 °C 89 % 1022,3 hPa 0,0 l/m² 0 min 0 W/m² 0,0 km/h (0 Bft) 97,87 %
20.04.2026 02:52 6,3 °C 5,0 °C 2,2 °C 89 % 1022,3 hPa 0,0 l/m² 0 min 0 W/m² 0,0 km/h (0 Bft) 97,87 %
20.04.2026 02:54 6,3 °C 5,0 °C 2,2 °C 89 % 1022,3 hPa 0,0 l/m² 0 min 0 W/m² 9,7 km/h (2 Bft) 97,87 %
20.04.2026 02:56 6,3 °C 5,0 °C 2,2 °C 89 % 1022,3 hPa 0,0 l/m² 0 min 0 W/m² 3,2 km/h (1 Bft) 98,00 %
20.04.2026 02:58 6,3 °C 5,0 °C 2,2 °C 89 % 1022,3 hPa 0,0 l/m² 0 min 0 W/m² 6,4 km/h (2 Bft) 97,87 %
20.04.2026 03:00 6,3 °C 5,0 °C 2,2 °C 89 % 1022,3 hPa 0,0 l/m² 0 min 0 W/m² 0,0 km/h (0 Bft) 97,87 %
20.04.2026 03:02 6,3 °C 5,0 °C 2,2 °C 89 % 1022,3 hPa 0,0 l/m² 0 min 0 W/m² 3,2 km/h (1 Bft) 97,87 %
20.04.2026 03:04 6,3 °C 5,0 °C 2,2 °C 89 % 1022,4 hPa 0,0 l/m² 0 min 0 W/m² 3,2 km/h (1 Bft) 97,83 %
20.04.2026 03:06 6,2 °C 5,0 °C 2,2 °C 89 % 1022,3 hPa 0,0 l/m² 0 min 0 W/m² 3,2 km/h (1 Bft) 97,87 %
20.04.2026 03:08 6,2 °C 5,0 °C 2,2 °C 89 % 1022,3 hPa 0,0 l/m² 0 min 0 W/m² 3,2 km/h (1 Bft) 95,74 %
20.04.2026 03:10 6,2 °C 5,0 °C 2,2 °C 89 % 1022,3 hPa 0,0 l/m² 0 min 0 W/m² 3,2 km/h (1 Bft) 95,74 %
20.04.2026 03:12 6,2 °C 5,0 °C 1,7 °C 89 % 1022,3 hPa 0,0 l/m² 0 min 0 W/m² 6,4 km/h (2 Bft) 95,74 %
20.04.2026 03:14 6,2 °C 5,0 °C 1,7 °C 89 % 1022,3 hPa 0,0 l/m² 0 min 0 W/m² 3,2 km/h (1 Bft) 97,87 %
20.04.2026 03:16 6,1 °C 5,0 °C 1,7 °C 89 % 1022,3 hPa 0,0 l/m² 0 min 0 W/m² 0,0 km/h (0 Bft) 97,87 %
20.04.2026 03:18 6,1 °C 5,0 °C 1,7 °C 90 % 1022,3 hPa 0,0 l/m² 0 min 0 W/m² 3,2 km/h (1 Bft) 100,00 %
20.04.2026 03:20 6,1 °C 5,0 °C 1,7 °C 90 % 1022,2 hPa 0,0 l/m² 0 min 0 W/m² 3,2 km/h (1 Bft) 100,00 %
20.04.2026 03:22 6,1 °C 5,0 °C 1,7 °C 90 % 1022,2 hPa 0,0 l/m² 0 min 0 W/m² 3,2 km/h (1 Bft) 100,00 %
20.04.2026 03:24 6,1 °C 5,0 °C 1,7 °C 90 % 1022,2 hPa 0,0 l/m² 0 min 0 W/m² 3,2 km/h (1 Bft) 100,00 %
20.04.2026 03:26 6,1 °C 5,0 °C 1,7 °C 90 % 1022,2 hPa 0,0 l/m² 0 min 0 W/m² 3,2 km/h (1 Bft) 100,00 %
20.04.2026 03:28 6,0 °C 5,0 °C 1,7 °C 90 % 1022,3 hPa 0,0 l/m² 0 min 0 W/m² 3,2 km/h (1 Bft) 100,00 %
20.04.2026 03:30 6,0 °C 4,4 °C 1,7 °C 90 % 1022,3 hPa 0,0 l/m² 0 min 0 W/m² 0,0 km/h (0 Bft) 97,87 %
20.04.2026 03:32 5,9 °C 4,4 °C 1,7 °C 90 % 1022,2 hPa 0,0 l/m² 0 min 0 W/m² 0,0 km/h (0 Bft) 100,00 %
20.04.2026 03:34 5,9 °C 4,4 °C 1,7 °C 90 % 1022,3 hPa 0,0 l/m² 0 min 0 W/m² 0,0 km/h (0 Bft) 100,00 %
20.04.2026 03:36 5,9 °C 4,4 °C 1,7 °C 90 % 1022,3 hPa 0,0 l/m² 0 min 0 W/m² 0,0 km/h (0 Bft) 100,00 %
20.04.2026 03:38 5,9 °C 4,4 °C 1,7 °C 90 % 1022,3 hPa 0,0 l/m² 0 min 0 W/m² 0,0 km/h (0 Bft) 100,00 %
20.04.2026 03:40 5,8 °C 4,4 °C 1,7 °C 90 % 1022,3 hPa 0,0 l/m² 0 min 0 W/m² 0,0 km/h (0 Bft) 97,96 %
20.04.2026 03:42 5,8 °C 4,4 °C 1,7 °C 90 % 1022,3 hPa 0,0 l/m² 0 min 0 W/m² 3,2 km/h (1 Bft) 98,00 %
20.04.2026 03:44 5,8 °C 4,4 °C 1,7 °C 90 % 1022,3 hPa 0,0 l/m² 0 min 0 W/m² 0,0 km/h (0 Bft) 98,00 %
20.04.2026 03:46 5,8 °C 4,4 °C 1,7 °C 90 % 1022,3 hPa 0,0 l/m² 0 min 0 W/m² 3,2 km/h (1 Bft) 95,74 %
20.04.2026 03:48 5,7 °C 4,4 °C 1,7 °C 90 % 1022,2 hPa 0,0 l/m² 0 min 0 W/m² 3,2 km/h (1 Bft) 100,00 %
20.04.2026 03:50 5,7 °C 4,4 °C 1,7 °C 90 % 1022,3 hPa 0,0 l/m² 0 min 0 W/m² 0,0 km/h (0 Bft) 97,87 %
20.04.2026 03:52 5,7 °C 4,4 °C 1,7 °C 90 % 1022,2 hPa 0,0 l/m² 0 min 0 W/m² 0,0 km/h (0 Bft) 97,87 %
20.04.2026 03:54 5,7 °C 4,4 °C 1,7 °C 90 % 1022,3 hPa 0,0 l/m² 0 min 0 W/m² 0,0 km/h (0 Bft) 94,64 %
20.04.2026 03:56 5,7 °C 4,4 °C 1,7 °C 90 % 1022,2 hPa 0,0 l/m² 0 min 0 W/m² 0,0 km/h (0 Bft) 97,87 %
20.04.2026 03:58 5,6 °C 4,4 °C 1,1 °C 90 % 1022,2 hPa 0,0 l/m² 0 min 0 W/m² 0,0 km/h (0 Bft) 94,74 %
20.04.2026 04:00 5,6 °C 4,4 °C 1,1 °C 90 % 1022,3 hPa 0,0 l/m² 0 min 0 W/m² 0,0 km/h (0 Bft) 97,87 %
20.04.2026 04:02 5,6 °C 4,4 °C 1,1 °C 90 % 1022,3 hPa 0,0 l/m² 0 min 0 W/m² 3,2 km/h (1 Bft) 92,00 %
20.04.2026 04:07 5,5 °C 3,9 °C 1,1 °C 90 % 1022,3 hPa 0,0 l/m² 0 min 0 W/m² 0,0 km/h (0 Bft) 100,00 %
20.04.2026 04:08 5,5 °C 3,9 °C 1,1 °C 90 % 1022,3 hPa 0,0 l/m² 0 min 0 W/m² 0,0 km/h (0 Bft) 91,67 %
20.04.2026 04:10 5,5 °C 3,9 °C 1,1 °C 90 % 1022,3 hPa 0,0 l/m² 0 min 0 W/m² 0,0 km/h (0 Bft) 100,00 %
20.04.2026 04:12 5,4 °C 3,9 °C 1,1 °C 90 % 1022,3 hPa 0,0 l/m² 0 min 0 W/m² 0,0 km/h (0 Bft) 100,00 %
20.04.2026 04:14 5,4 °C 3,9 °C 1,1 °C 90 % 1022,3 hPa 0,0 l/m² 0 min 0 W/m² 0,0 km/h (0 Bft) 100,00 %
20.04.2026 04:16 5,4 °C 3,9 °C 1,1 °C 90 % 1022,3 hPa 0,0 l/m² 0 min 0 W/m² 0,0 km/h (0 Bft) 95,74 %
20.04.2026 04:18 5,3 °C 3,9 °C 1,1 °C 90 % 1022,3 hPa 0,0 l/m² 0 min 0 W/m² 0,0 km/h (0 Bft) 100,00 %
20.04.2026 04:20 5,3 °C 3,9 °C 1,1 °C 90 % 1022,2 hPa 0,0 l/m² 0 min 0 W/m² 0,0 km/h (0 Bft) 100,00 %
20.04.2026 04:22 5,3 °C 3,9 °C 1,1 °C 90 % 1022,2 hPa 0,0 l/m² 0 min 0 W/m² 0,0 km/h (0 Bft) 96,00 %
20.04.2026 04:24 5,3 °C 3,9 °C 1,1 °C 90 % 1022,2 hPa 0,0 l/m² 0 min 0 W/m² 0,0 km/h (0 Bft) 100,00 %
20.04.2026 04:26 5,2 °C 3,9 °C 1,1 °C 91 % 1022,2 hPa 0,0 l/m² 0 min 0 W/m² 3,2 km/h (1 Bft) 100,00 %
20.04.2026 04:28 5,2 °C 3,9 °C 1,1 °C 91 % 1022,2 hPa 0,0 l/m² 0 min 0 W/m² 6,4 km/h (2 Bft) 100,00 %
20.04.2026 04:30 5,2 °C 3,9 °C 1,1 °C 91 % 1022,2 hPa 0,0 l/m² 0 min 0 W/m² 6,4 km/h (2 Bft) 100,00 %
20.04.2026 04:32 5,2 °C 3,9 °C 1,1 °C 91 % 1022,2 hPa 0,0 l/m² 0 min 0 W/m² 6,4 km/h (2 Bft) 100,00 %
20.04.2026 04:34 5,1 °C 3,9 °C 1,1 °C 91 % 1022,2 hPa 0,0 l/m² 0 min 0 W/m² 0,0 km/h (0 Bft) 100,00 %
20.04.2026 04:36 5,1 °C 3,9 °C 1,1 °C 91 % 1022,2 hPa 0,0 l/m² 0 min 0 W/m² 0,0 km/h (0 Bft) 100,00 %
20.04.2026 04:38 5,1 °C 3,9 °C 1,1 °C 91 % 1022,2 hPa 0,0 l/m² 0 min 0 W/m² 0,0 km/h (0 Bft) 98,00 %
20.04.2026 04:40 5,1 °C 3,9 °C 1,1 °C 91 % 1022,1 hPa 0,0 l/m² 0 min 0 W/m² 0,0 km/h (0 Bft) 97,37 %
20.04.2026 04:42 5,1 °C 3,9 °C 1,1 °C 91 % 1022,2 hPa 0,0 l/m² 0 min 0 W/m² 0,0 km/h (0 Bft) 100,00 %
20.04.2026 04:44 5,1 °C 3,9 °C 1,1 °C 91 % 1022,2 hPa 0,0 l/m² 0 min 0 W/m² 0,0 km/h (0 Bft) 97,87 %
20.04.2026 04:46 5,0 °C 3,9 °C 1,1 °C 91 % 1022,2 hPa 0,0 l/m² 0 min 0 W/m² 0,0 km/h (0 Bft) 97,83 %
20.04.2026 04:48 5,0 °C 3,9 °C 1,1 °C 91 % 1022,2 hPa 0,0 l/m² 0 min 0 W/m² 0,0 km/h (0 Bft) 98,00 %
20.04.2026 04:50 5,0 °C 3,9 °C 1,1 °C 91 % 1022,2 hPa 0,0 l/m² 0 min 0 W/m² 0,0 km/h (0 Bft) 95,74 %
20.04.2026 04:52 4,9 °C 3,9 °C 1,1 °C 91 % 1022,2 hPa 0,0 l/m² 0 min 0 W/m² 0,0 km/h (0 Bft) 97,87 %
20.04.2026 04:54 4,9 °C 3,9 °C 1,1 °C 91 % 1022,2 hPa 0,0 l/m² 0 min 0 W/m² 0,0 km/h (0 Bft) 97,87 %
20.04.2026 04:56 4,9 °C 3,9 °C 1,1 °C 91 % 1022,2 hPa 0,0 l/m² 0 min 0 W/m² 0,0 km/h (0 Bft) 96,00 %
20.04.2026 04:58 4,9 °C 3,9 °C 1,1 °C 91 % 1022,2 hPa 0,0 l/m² 0 min 0 W/m² 0,0 km/h (0 Bft) 97,87 %
20.04.2026 05:00 4,9 °C 3,9 °C 1,1 °C 91 % 1022,2 hPa 0,0 l/m² 0 min 0 W/m² 0,0 km/h (0 Bft) 97,83 %
20.04.2026 05:02 4,9 °C 3,9 °C 1,1 °C 91 % 1022,2 hPa 0,0 l/m² 0 min 0 W/m² 3,2 km/h (1 Bft) 97,87 %
20.04.2026 05:04 4,9 °C 3,9 °C 1,1 °C 91 % 1022,2 hPa 0,0 l/m² 0 min 0 W/m² 3,2 km/h (1 Bft) 95,74 %
20.04.2026 05:06 4,9 °C 3,9 °C 0,6 °C 91 % 1022,2 hPa 0,0 l/m² 0 min 0 W/m² 0,0 km/h (0 Bft) 98,00 %
20.04.2026 05:08 4,9 °C 3,9 °C 0,6 °C 91 % 1022,2 hPa 0,0 l/m² 0 min 0 W/m² 3,2 km/h (1 Bft) 77,14 %
20.04.2026 05:10 4,9 °C 3,9 °C 0,6 °C 92 % 1022,2 hPa 0,0 l/m² 0 min 0 W/m² 0,0 km/h (0 Bft) 65,96 %
20.04.2026 05:12 4,9 °C 3,9 °C 1,1 °C 92 % 1022,2 hPa 0,0 l/m² 0 min 0 W/m² 0,0 km/h (0 Bft) 93,62 %
20.04.2026 05:14 4,9 °C 3,9 °C 1,1 °C 92 % 1022,3 hPa 0,0 l/m² 0 min 0 W/m² 0,0 km/h (0 Bft) 93,62 %
20.04.2026 05:16 4,8 °C 3,9 °C 1,1 °C 92 % 1022,3 hPa 0,0 l/m² 0 min 0 W/m² 3,2 km/h (1 Bft) 94,00 %
20.04.2026 05:18 4,8 °C 3,9 °C 1,1 °C 92 % 1022,3 hPa 0,0 l/m² 0 min 0 W/m² 3,2 km/h (1 Bft) 89,36 %
20.04.2026 05:20 4,8 °C 3,9 °C 1,1 °C 92 % 1022,3 hPa 0,0 l/m² 0 min 0 W/m² 3,2 km/h (1 Bft) 94,23 %
20.04.2026 05:22 4,8 °C 3,9 °C 1,1 °C 92 % 1022,4 hPa 0,0 l/m² 0 min 0 W/m² 3,2 km/h (1 Bft) 95,74 %
20.04.2026 05:24 4,8 °C 3,9 °C 1,1 °C 92 % 1022,4 hPa 0,0 l/m² 0 min 0 W/m² 0,0 km/h (0 Bft) 95,74 %
20.04.2026 05:26 4,8 °C 3,9 °C 1,1 °C 92 % 1022,4 hPa 0,0 l/m² 0 min 0 W/m² 0,0 km/h (0 Bft) 95,74 %
20.04.2026 05:28 4,7 °C 3,9 °C 0,6 °C 92 % 1022,4 hPa 0,0 l/m² 0 min 0 W/m² 3,2 km/h (1 Bft) 95,74 %
20.04.2026 05:30 4,7 °C 3,3 °C 0,6 °C 92 % 1022,3 hPa 0,0 l/m² 0 min 0 W/m² 3,2 km/h (1 Bft) 94,74 %
20.04.2026 05:32 4,7 °C 3,3 °C 0,6 °C 92 % 1022,4 hPa 0,0 l/m² 0 min 0 W/m² 3,2 km/h (1 Bft) 96,23 %
20.04.2026 05:34 4,7 °C 3,3 °C 0,6 °C 92 % 1022,3 hPa 0,0 l/m² 0 min 0 W/m² 0,0 km/h (0 Bft) 93,62 %
20.04.2026 05:36 4,6 °C 3,3 °C 0,6 °C 92 % 1022,2 hPa 0,0 l/m² 0 min 0 W/m² 0,0 km/h (0 Bft) 97,83 %
20.04.2026 05:38 4,6 °C 3,3 °C 0,6 °C 92 % 1022,3 hPa 0,0 l/m² 0 min 0 W/m² 0,0 km/h (0 Bft) 98,00 %
20.04.2026 05:40 4,6 °C 3,3 °C 0,6 °C 92 % 1022,3 hPa 0,0 l/m² 0 min 0 W/m² 3,2 km/h (1 Bft) 97,87 %
20.04.2026 05:42 4,6 °C 3,3 °C 0,6 °C 92 % 1022,3 hPa 0,0 l/m² 0 min 0 W/m² 0,0 km/h (0 Bft) 97,87 %
20.04.2026 05:44 4,6 °C 3,3 °C 0,6 °C 92 % 1022,3 hPa 0,0 l/m² 0 min 0 W/m² 0,0 km/h (0 Bft) 94,74 %
20.04.2026 05:46 4,6 °C 3,3 °C 0,6 °C 92 % 1022,3 hPa 0,0 l/m² 0 min 0 W/m² 3,2 km/h (1 Bft) 97,87 %
20.04.2026 05:48 4,6 °C 3,3 °C 0,6 °C 93 % 1022,3 hPa 0,0 l/m² 0 min 0 W/m² 3,2 km/h (1 Bft) 96,00 %
20.04.2026 05:50 4,6 °C 3,3 °C 0,6 °C 93 % 1022,2 hPa 0,0 l/m² 0 min 0 W/m² 0,0 km/h (0 Bft) 97,87 %
20.04.2026 05:52 4,5 °C 3,3 °C 0,6 °C 93 % 1022,3 hPa 0,0 l/m² 0 min 0 W/m² 0,0 km/h (0 Bft) 94,00 %
20.04.2026 05:54 4,5 °C 3,3 °C 0,6 °C 93 % 1022,2 hPa 0,0 l/m² 0 min 0 W/m² 0,0 km/h (0 Bft) 95,65 %
20.04.2026 05:56 4,5 °C 3,3 °C 0,6 °C 93 % 1022,2 hPa 0,0 l/m² 0 min 0 W/m² 0,0 km/h (0 Bft) 97,87 %
20.04.2026 05:58 4,5 °C 3,3 °C 0,6 °C 93 % 1022,2 hPa 0,0 l/m² 0 min 0 W/m² 3,2 km/h (1 Bft) 97,87 %
20.04.2026 06:00 4,4 °C 3,3 °C 0,6 °C 93 % 1022,2 hPa 0,0 l/m² 0 min 0 W/m² 0,0 km/h (0 Bft) 97,87 %
20.04.2026 06:02 4,5 °C 3,9 °C 0,6 °C 93 % 1022,2 hPa 0,0 l/m² 0 min 0 W/m² 0,0 km/h (0 Bft) 98,00 %
20.04.2026 06:04 4,5 °C 3,9 °C 0,6 °C 93 % 1022,2 hPa 0,0 l/m² 0 min 0 W/m² 0,0 km/h (0 Bft) 97,87 %
20.04.2026 06:06 4,5 °C 3,9 °C 0,6 °C 93 % 1022,2 hPa 0,0 l/m² 0 min 0 W/m² 3,2 km/h (1 Bft) 97,62 %
20.04.2026 06:08 4,4 °C 3,9 °C 0,6 °C 93 % 1022,1 hPa 0,0 l/m² 0 min 0 W/m² 3,2 km/h (1 Bft) 95,74 %
20.04.2026 06:10 4,4 °C 3,9 °C 0,6 °C 93 % 1022,1 hPa 0,0 l/m² 0 min 0 W/m² 0,0 km/h (0 Bft) 97,87 %
20.04.2026 06:12 4,5 °C 3,9 °C 0,6 °C 93 % 1022,1 hPa 0,0 l/m² 0 min 0 W/m² 3,2 km/h (1 Bft) 95,65 %
20.04.2026 06:14 4,4 °C 3,9 °C 0,6 °C 93 % 1022,1 hPa 0,0 l/m² 0 min 0 W/m² 3,2 km/h (1 Bft) 97,87 %
20.04.2026 06:16 4,4 °C 3,9 °C 0,6 °C 93 % 1022,1 hPa 0,0 l/m² 0 min 0 W/m² 0,0 km/h (0 Bft) 95,12 %
20.04.2026 06:18 4,4 °C 3,9 °C 1,1 °C 93 % 1022,1 hPa 0,0 l/m² 0 min 0 W/m² 3,2 km/h (1 Bft) 96,00 %
20.04.2026 06:20 4,4 °C 3,9 °C 0,6 °C 93 % 1022,1 hPa 0,0 l/m² 0 min 0 W/m² 0,0 km/h (0 Bft) 97,87 %
20.04.2026 06:22 4,4 °C 3,9 °C 0,6 °C 93 % 1022,1 hPa 0,0 l/m² 0 min 0 W/m² 0,0 km/h (0 Bft) 100,00 %
20.04.2026 06:24 4,4 °C 3,3 °C 0,6 °C 93 % 1022,1 hPa 0,0 l/m² 0 min 0 W/m² 0,0 km/h (0 Bft) 100,00 %
20.04.2026 06:26 4,4 °C 3,3 °C 0,6 °C 93 % 1022,1 hPa 0,0 l/m² 0 min 0 W/m² 3,2 km/h (1 Bft) 100,00 %
20.04.2026 06:28 4,4 °C 3,3 °C 0,6 °C 93 % 1022,1 hPa 0,0 l/m² 0 min 0 W/m² 0,0 km/h (0 Bft) 97,83 %
20.04.2026 06:30 4,4 °C 3,3 °C 0,6 °C 93 % 1022,2 hPa 0,0 l/m² 0 min 0 W/m² 6,4 km/h (2 Bft) 100,00 %
20.04.2026 06:32 4,3 °C 3,3 °C 0,6 °C 93 % 1022,2 hPa 0,0 l/m² 0 min 0 W/m² 0,0 km/h (0 Bft) 100,00 %
20.04.2026 06:34 4,3 °C 3,3 °C 0,6 °C 93 % 1022,2 hPa 0,0 l/m² 0 min 4 W/m² 0,0 km/h (0 Bft) 100,00 %
20.04.2026 06:36 4,3 °C 3,3 °C 0,6 °C 93 % 1022,2 hPa 0,0 l/m² 0 min 5 W/m² 0,0 km/h (0 Bft) 100,00 %
20.04.2026 06:38 4,3 °C 3,3 °C 0,6 °C 93 % 1022,1 hPa 0,0 l/m² 0 min 5 W/m² 0,0 km/h (0 Bft) 97,87 %
20.04.2026 06:40 4,3 °C 3,3 °C 0,6 °C 93 % 1022,2 hPa 0,0 l/m² 0 min 7 W/m² 0,0 km/h (0 Bft) 96,23 %
20.04.2026 06:42 4,3 °C 3,3 °C 0,6 °C 93 % 1022,1 hPa 0,0 l/m² 0 min 7 W/m² 0,0 km/h (0 Bft) 94,74 %
20.04.2026 06:44 4,3 °C 3,3 °C 0,6 °C 93 % 1022,2 hPa 0,0 l/m² 0 min 8 W/m² 0,0 km/h (0 Bft) 97,87 %
20.04.2026 06:46 4,3 °C 3,3 °C 0,6 °C 93 % 1022,2 hPa 0,0 l/m² 0 min 9 W/m² 0,0 km/h (0 Bft) 95,92 %
20.04.2026 06:48 4,3 °C 3,3 °C 0,6 °C 93 % 1022,2 hPa 0,0 l/m² 0 min 10 W/m² 0,0 km/h (0 Bft) 95,74 %
20.04.2026 06:50 4,3 °C 3,3 °C 0,6 °C 94 % 1022,1 hPa 0,0 l/m² 0 min 11 W/m² 0,0 km/h (0 Bft) 95,74 %
20.04.2026 06:52 4,3 °C 3,3 °C 0,6 °C 94 % 1022,1 hPa 0,0 l/m² 0 min 12 W/m² 0,0 km/h (0 Bft) 91,49 %
20.04.2026 06:54 4,3 °C 3,3 °C 0,6 °C 94 % 1022,1 hPa 0,0 l/m² 0 min 12 W/m² 0,0 km/h (0 Bft) 97,87 %
20.04.2026 06:56 4,3 °C 3,3 °C 0,6 °C 94 % 1022,2 hPa 0,0 l/m² 0 min 14 W/m² 0,0 km/h (0 Bft) 95,74 %
20.04.2026 06:58 4,3 °C 3,3 °C 0,6 °C 94 % 1022,1 hPa 0,0 l/m² 0 min 14 W/m² 0,0 km/h (0 Bft) 95,74 %
20.04.2026 07:00 4,3 °C 3,9 °C 0,6 °C 94 % 1022,2 hPa 0,0 l/m² 0 min 16 W/m² 0,0 km/h (0 Bft) 95,74 %
20.04.2026 07:02 4,3 °C 3,9 °C 0,6 °C 94 % 1022,1 hPa 0,0 l/m² 0 min 16 W/m² 0,0 km/h (0 Bft) 93,48 %
20.04.2026 07:04 4,3 °C 3,9 °C 0,6 °C 94 % 1022,1 hPa 0,0 l/m² 0 min 18 W/m² 0,0 km/h (0 Bft) 96,00 %
20.04.2026 07:06 4,3 °C 3,9 °C 0,6 °C 94 % 1022,2 hPa 0,0 l/m² 0 min 19 W/m² 0,0 km/h (0 Bft) 95,74 %
20.04.2026 07:08 4,4 °C 3,9 °C 0,6 °C 94 % 1022,2 hPa 0,0 l/m² 0 min 19 W/m² 0,0 km/h (0 Bft) 97,87 %
20.04.2026 07:10 4,4 °C 3,9 °C 0,6 °C 94 % 1022,2 hPa 0,0 l/m² 0 min 21 W/m² 0,0 km/h (0 Bft) 100,00 %
20.04.2026 07:12 4,4 °C 3,9 °C 0,6 °C 94 % 1022,2 hPa 0,0 l/m² 0 min 21 W/m² 0,0 km/h (0 Bft) 100,00 %
20.04.2026 07:14 4,4 °C 3,9 °C 0,6 °C 94 % 1022,2 hPa 0,0 l/m² 0 min 23 W/m² 0,0 km/h (0 Bft) 100,00 %
20.04.2026 07:16 4,4 °C 3,9 °C 0,6 °C 94 % 1022,2 hPa 0,0 l/m² 0 min 25 W/m² 0,0 km/h (0 Bft) 95,65 %
20.04.2026 07:18 4,4 °C 3,9 °C 0,6 °C 94 % 1022,2 hPa 0,0 l/m² 0 min 26 W/m² 0,0 km/h (0 Bft) 93,62 %
20.04.2026 07:20 4,4 °C 3,9 °C 0,6 °C 94 % 1022,2 hPa 0,0 l/m² 0 min 26 W/m² 0,0 km/h (0 Bft) 97,87 %
20.04.2026 07:22 4,4 °C 3,9 °C 1,1 °C 94 % 1022,1 hPa 0,0 l/m² 0 min 29 W/m² 0,0 km/h (0 Bft) 97,87 %
20.04.2026 07:24 4,4 °C 3,9 °C 0,6 °C 94 % 1022,2 hPa 0,0 l/m² 0 min 32 W/m² 0,0 km/h (0 Bft) 97,87 %
20.04.2026 07:26 4,4 °C 3,9 °C 0,6 °C 94 % 1022,2 hPa 0,0 l/m² 0 min 35 W/m² 0,0 km/h (0 Bft) 100,00 %
20.04.2026 07:28 4,4 °C 3,9 °C 0,6 °C 94 % 1022,2 hPa 0,0 l/m² 0 min 39 W/m² 0,0 km/h (0 Bft) 100,00 %
20.04.2026 07:30 4,4 °C 4,4 °C 1,1 °C 94 % 1022,2 hPa 0,0 l/m² 0 min 41 W/m² 0,0 km/h (0 Bft) 97,87 %
20.04.2026 07:32 4,4 °C 4,4 °C 1,1 °C 94 % 1022,2 hPa 0,0 l/m² 0 min 46 W/m² 0,0 km/h (0 Bft) 97,87 %
20.04.2026 07:34 4,4 °C 4,4 °C 1,1 °C 94 % 1022,2 hPa 0,0 l/m² 0 min 49 W/m² 0,0 km/h (0 Bft) 100,00 %
20.04.2026 07:36 4,4 °C 4,4 °C 1,1 °C 94 % 1022,2 hPa 0,0 l/m² 0 min 52 W/m² 0,0 km/h (0 Bft) 100,00 %
20.04.2026 07:38 4,5 °C 4,4 °C 1,1 °C 94 % 1022,2 hPa 0,0 l/m² 0 min 58 W/m² 0,0 km/h (0 Bft) 100,00 %
20.04.2026 07:40 4,6 °C 5,0 °C 1,7 °C 94 % 1022,2 hPa 0,0 l/m² 0 min 63 W/m² 0,0 km/h (0 Bft) 97,83 %
20.04.2026 07:42 4,6 °C 5,0 °C 1,7 °C 94 % 1022,3 hPa 0,0 l/m² 0 min 70 W/m² 0,0 km/h (0 Bft) 100,00 %
20.04.2026 07:44 4,7 °C 5,0 °C 1,7 °C 95 % 1022,2 hPa 0,0 l/m² 0 min 74 W/m² 0,0 km/h (0 Bft) 100,00 %
20.04.2026 07:46 4,8 °C 5,0 °C 2,2 °C 95 % 1022,3 hPa 0,0 l/m² 0 min 76 W/m² 0,0 km/h (0 Bft) 100,00 %
20.04.2026 07:48 4,8 °C 5,6 °C 2,2 °C 95 % 1022,3 hPa 0,0 l/m² 0 min 80 W/m² 6,4 km/h (2 Bft) 100,00 %
20.04.2026 07:50 4,9 °C 5,6 °C 2,2 °C 95 % 1022,3 hPa 0,0 l/m² 0 min 84 W/m² 6,4 km/h (2 Bft) 100,00 %
20.04.2026 07:52 5,0 °C 5,6 °C 2,2 °C 95 % 1022,2 hPa 0,0 l/m² 0 min 89 W/m² 3,2 km/h (1 Bft) 100,00 %
20.04.2026 07:54 5,1 °C 6,1 °C 2,2 °C 95 % 1022,2 hPa 0,0 l/m² 0 min 93 W/m² 3,2 km/h (1 Bft) 100,00 %
20.04.2026 07:56 5,2 °C 6,1 °C 2,8 °C 95 % 1022,3 hPa 0,0 l/m² 0 min 97 W/m² 3,2 km/h (1 Bft) 100,00 %
20.04.2026 07:58 5,2 °C 6,7 °C 2,8 °C 95 % 1022,2 hPa 0,0 l/m² 0 min 100 W/m² 3,2 km/h (1 Bft) 100,00 %
20.04.2026 08:00 5,3 °C 6,7 °C 2,8 °C 95 % 1022,2 hPa 0,0 l/m² 0 min 103 W/m² 3,2 km/h (1 Bft) 100,00 %
20.04.2026 08:02 5,4 °C 6,7 °C 2,8 °C 95 % 1022,2 hPa 0,0 l/m² 0 min 103 W/m² 0,0 km/h (0 Bft) 100,00 %
20.04.2026 08:04 5,6 °C 6,7 °C 2,8 °C 95 % 1022,2 hPa 0,0 l/m² 0 min 105 W/m² 0,0 km/h (0 Bft) 98,00 %
20.04.2026 08:06 5,7 °C 7,2 °C 3,3 °C 96 % 1022,3 hPa 0,0 l/m² 0 min 109 W/m² 6,4 km/h (2 Bft) 100,00 %
20.04.2026 08:08 5,8 °C 7,2 °C 3,3 °C 96 % 1022,2 hPa 0,0 l/m² 0 min 113 W/m² 9,7 km/h (2 Bft) 97,44 %
20.04.2026 08:10 5,9 °C 7,2 °C 3,3 °C 96 % 1022,2 hPa 0,0 l/m² 0 min 113 W/m² 9,7 km/h (2 Bft) 100,00 %
20.04.2026 08:12 6,0 °C 7,8 °C 3,3 °C 96 % 1022,3 hPa 0,0 l/m² 0 min 111 W/m² 6,4 km/h (2 Bft) 100,00 %
20.04.2026 08:14 6,1 °C 7,2 °C 3,3 °C 96 % 1022,3 hPa 0,0 l/m² 0 min 113 W/m² 6,4 km/h (2 Bft) 100,00 %
20.04.2026 08:16 6,2 °C 7,2 °C 3,3 °C 96 % 1022,3 hPa 0,0 l/m² 0 min 114 W/m² 6,4 km/h (2 Bft) 95,74 %
20.04.2026 08:18 6,2 °C 7,8 °C 3,3 °C 96 % 1022,3 hPa 0,0 l/m² 0 min 114 W/m² 12,9 km/h (3 Bft) 100,00 %
20.04.2026 08:20 6,3 °C 7,8 °C 3,9 °C 96 % 1022,3 hPa 0,0 l/m² 0 min 116 W/m² 9,7 km/h (2 Bft) 93,62 %
20.04.2026 08:22 6,3 °C 7,8 °C 3,9 °C 96 % 1022,3 hPa 0,0 l/m² 0 min 118 W/m² 3,2 km/h (1 Bft) 95,74 %
20.04.2026 08:24 6,4 °C 7,8 °C 3,9 °C 96 % 1022,3 hPa 0,0 l/m² 0 min 113 W/m² 12,9 km/h (3 Bft) 97,87 %
20.04.2026 08:26 6,5 °C 7,8 °C 3,3 °C 96 % 1022,2 hPa 0,0 l/m² 0 min 111 W/m² 9,7 km/h (2 Bft) 97,87 %
20.04.2026 08:28 6,5 °C 7,8 °C 3,9 °C 96 % 1022,3 hPa 0,0 l/m² 0 min 109 W/m² 6,4 km/h (2 Bft) 95,74 %
20.04.2026 08:30 6,6 °C 7,8 °C 3,9 °C 95 % 1022,2 hPa 0,0 l/m² 0 min 111 W/m² 9,7 km/h (2 Bft) 97,83 %
20.04.2026 08:32 6,6 °C 7,8 °C 3,9 °C 95 % 1022,3 hPa 0,0 l/m² 0 min 114 W/m² 12,9 km/h (3 Bft) 98,00 %
20.04.2026 08:34 6,6 °C 7,8 °C 3,9 °C 95 % 1022,3 hPa 0,0 l/m² 0 min 118 W/m² 6,4 km/h (2 Bft) 97,87 %
20.04.2026 08:36 6,6 °C 7,8 °C 3,9 °C 95 % 1022,3 hPa 0,0 l/m² 0 min 118 W/m² 6,4 km/h (2 Bft) 98,00 %
20.04.2026 08:38 6,7 °C 7,8 °C 3,9 °C 95 % 1022,2 hPa 0,0 l/m² 0 min 118 W/m² 12,9 km/h (3 Bft) 95,74 %
20.04.2026 08:40 6,7 °C 7,8 °C 3,9 °C 95 % 1022,2 hPa 0,0 l/m² 0 min 120 W/m² 9,7 km/h (2 Bft) 97,87 %
20.04.2026 08:42 6,7 °C 7,8 °C 3,9 °C 95 % 1022,3 hPa 0,0 l/m² 2 min 236 W/m² 12,9 km/h (3 Bft) 97,83 %
20.04.2026 08:44 6,7 °C 7,8 °C 3,9 °C 95 % 1022,3 hPa 0,0 l/m² 2 min 282 W/m² 6,4 km/h (2 Bft) 97,87 %
20.04.2026 08:46 6,7 °C 7,8 °C 3,9 °C 95 % 1022,2 hPa 0,0 l/m² 2 min 280 W/m² 9,7 km/h (2 Bft) 93,62 %
20.04.2026 08:48 6,8 °C 7,8 °C 3,3 °C 95 % 1022,2 hPa 0,0 l/m² 2 min 290 W/m² 9,7 km/h (2 Bft) 95,74 %
20.04.2026 08:50 6,8 °C 7,2 °C 3,3 °C 95 % 1022,3 hPa 0,0 l/m² 2 min 296 W/m² 6,4 km/h (2 Bft) 95,74 %
20.04.2026 08:52 6,8 °C 7,8 °C 3,3 °C 94 % 1022,2 hPa 0,0 l/m² 2 min 300 W/m² 12,9 km/h (3 Bft) 95,74 %
20.04.2026 08:54 6,8 °C 7,8 °C 3,3 °C 95 % 1022,2 hPa 0,0 l/m² 2 min 303 W/m² 9,7 km/h (2 Bft) 98,00 %
20.04.2026 08:56 6,9 °C 8,9 °C 3,9 °C 95 % 1022,3 hPa 0,0 l/m² 2 min 319 W/m² 9,7 km/h (2 Bft) 95,12 %
20.04.2026 08:58 6,9 °C 10,6 °C 3,3 °C 95 % 1022,3 hPa 0,0 l/m² 2 min 320 W/m² 9,7 km/h (2 Bft) 97,37 %
20.04.2026 09:00 7,1 °C 12,2 °C 3,9 °C 94 % 1022,2 hPa 0,0 l/m² 2 min 324 W/m² 12,9 km/h (3 Bft) 96,77 %
20.04.2026 09:02 7,1 °C 12,8 °C 3,9 °C 94 % 1022,3 hPa 0,0 l/m² 2 min 325 W/m² 3,2 km/h (1 Bft) 97,83 %
20.04.2026 09:04 7,2 °C 12,8 °C 3,9 °C 94 % 1022,3 hPa 0,0 l/m² 2 min 329 W/m² 3,2 km/h (1 Bft) 97,87 %
20.04.2026 09:06 7,3 °C 13,3 °C 3,9 °C 94 % 1022,2 hPa 0,0 l/m² 2 min 338 W/m² 6,4 km/h (2 Bft) 94,29 %
20.04.2026 09:08 7,4 °C 14,4 °C 3,9 °C 94 % 1022,3 hPa 0,0 l/m² 2 min 342 W/m² 6,4 km/h (2 Bft) 96,00 %
20.04.2026 09:10 7,4 °C 13,9 °C 3,9 °C 94 % 1022,3 hPa 0,0 l/m² 2 min 350 W/m² 3,2 km/h (1 Bft) 97,87 %
20.04.2026 09:12 7,5 °C 14,4 °C 3,9 °C 93 % 1022,2 hPa 0,0 l/m² 2 min 358 W/m² 9,7 km/h (2 Bft) 97,87 %
20.04.2026 09:14 7,6 °C 15,6 °C 4,4 °C 93 % 1022,2 hPa 0,0 l/m² 2 min 366 W/m² 9,7 km/h (2 Bft) 97,87 %
20.04.2026 09:16 7,7 °C 15,0 °C 5,0 °C 93 % 1022,3 hPa 0,0 l/m² 2 min 378 W/m² 9,7 km/h (2 Bft) 95,74 %
20.04.2026 09:18 7,9 °C 15,0 °C 5,6 °C 93 % 1022,2 hPa 0,0 l/m² 2 min 391 W/m² 6,4 km/h (2 Bft) 95,65 %
20.04.2026 09:20 8,0 °C 15,6 °C 6,1 °C 92 % 1022,2 hPa 0,0 l/m² 2 min 401 W/m² 6,4 km/h (2 Bft) 95,74 %
20.04.2026 09:22 8,2 °C 16,1 °C 6,7 °C 92 % 1022,3 hPa 0,0 l/m² 2 min 271 W/m² 9,7 km/h (2 Bft) 97,87 %
20.04.2026 09:24 8,3 °C 16,1 °C 7,2 °C 92 % 1022,2 hPa 0,0 l/m² 2 min 375 W/m² 9,7 km/h (2 Bft) 97,87 %
20.04.2026 09:26 8,4 °C 14,4 °C 7,2 °C 91 % 1022,3 hPa 0,0 l/m² 2 min 293 W/m² 6,4 km/h (2 Bft) 96,00 %
20.04.2026 09:28 8,4 °C 14,4 °C 7,2 °C 91 % 1022,3 hPa 0,0 l/m² 0 min 97 W/m² 9,7 km/h (2 Bft) 100,00 %
20.04.2026 09:30 8,6 °C 15,0 °C 7,8 °C 90 % 1022,3 hPa 0,0 l/m² 2 min 337 W/m² 9,7 km/h (2 Bft) 97,87 %
20.04.2026 09:32 8,6 °C 13,9 °C 7,8 °C 89 % 1022,3 hPa 0,0 l/m² 2 min 373 W/m² 12,9 km/h (3 Bft) 100,00 %
20.04.2026 09:34 8,6 °C 13,9 °C 7,2 °C 89 % 1022,3 hPa 0,0 l/m² 2 min 277 W/m² 19,3 km/h (3 Bft) 98,18 %
20.04.2026 09:36 8,7 °C 15,0 °C 7,2 °C 89 % 1022,3 hPa 0,0 l/m² 2 min 420 W/m² 6,4 km/h (2 Bft) 100,00 %
20.04.2026 09:38 8,8 °C 15,0 °C 6,7 °C 88 % 1022,4 hPa 0,0 l/m² 2 min 308 W/m² 12,9 km/h (3 Bft) 100,00 %
20.04.2026 09:40 8,8 °C 16,1 °C 6,7 °C 88 % 1022,4 hPa 0,0 l/m² 2 min 494 W/m² 12,9 km/h (3 Bft) 100,00 %
20.04.2026 09:42 8,9 °C 14,4 °C 6,1 °C 87 % 1022,4 hPa 0,0 l/m² 2 min 345 W/m² 9,7 km/h (2 Bft) 100,00 %
20.04.2026 09:44 9,0 °C 15,0 °C 6,1 °C 87 % 1022,3 hPa 0,0 l/m² 0 min 121 W/m² 12,9 km/h (3 Bft) 97,87 %
20.04.2026 09:46 9,1 °C 15,6 °C 6,1 °C 87 % 1022,4 hPa 0,0 l/m² 2 min 486 W/m² 9,7 km/h (2 Bft) 100,00 %
20.04.2026 09:48 9,1 °C 13,9 °C 5,6 °C 86 % 1022,3 hPa 0,0 l/m² 0 min 169 W/m² 9,7 km/h (2 Bft) 100,00 %
20.04.2026 09:50 9,1 °C 13,9 °C 5,6 °C 85 % 1022,3 hPa 0,0 l/m² 0 min 132 W/m² 16,1 km/h (3 Bft) 100,00 %
20.04.2026 09:52 9,2 °C 15,6 °C 5,6 °C 85 % 1022,3 hPa 0,0 l/m² 2 min 525 W/m² 9,7 km/h (2 Bft) 100,00 %
20.04.2026 09:54 9,2 °C 16,1 °C 6,1 °C 85 % 1022,4 hPa 0,0 l/m² 2 min 545 W/m² 6,4 km/h (2 Bft) 97,87 %
20.04.2026 09:56 9,3 °C 16,1 °C 6,1 °C 85 % 1022,3 hPa 0,0 l/m² 2 min 535 W/m² 16,1 km/h (3 Bft) 100,00 %
20.04.2026 09:58 9,5 °C 15,0 °C 6,1 °C 85 % 1022,4 hPa 0,0 l/m² 2 min 529 W/m² 6,4 km/h (2 Bft) 100,00 %
20.04.2026 10:00 9,6 °C 13,9 °C 6,1 °C 84 % 1022,3 hPa 0,0 l/m² 0 min 160 W/m² 9,7 km/h (2 Bft) 97,87 %
20.04.2026 10:02 9,6 °C 13,9 °C 5,6 °C 83 % 1022,3 hPa 0,0 l/m² 2 min 523 W/m² 9,7 km/h (2 Bft) 97,87 %
20.04.2026 10:04 9,6 °C 15,0 °C 6,1 °C 82 % 1022,4 hPa 0,0 l/m² 2 min 573 W/m² 9,7 km/h (2 Bft) 97,87 %
20.04.2026 10:06 9,6 °C 15,6 °C 6,1 °C 82 % 1022,4 hPa 0,0 l/m² 2 min 607 W/m² 6,4 km/h (2 Bft) 97,87 %
20.04.2026 10:08 9,7 °C 15,6 °C 6,1 °C 82 % 1022,4 hPa 0,0 l/m² 2 min 579 W/m² 16,1 km/h (3 Bft) 100,00 %
20.04.2026 10:10 9,8 °C 13,9 °C 6,1 °C 81 % 1022,4 hPa 0,0 l/m² 2 min 555 W/m² 9,7 km/h (2 Bft) 100,00 %
20.04.2026 10:12 9,8 °C 12,8 °C 6,1 °C 81 % 1022,5 hPa 0,0 l/m² 2 min 492 W/m² 9,7 km/h (2 Bft) 97,87 %
20.04.2026 10:14 9,9 °C 11,7 °C 6,1 °C 80 % 1022,5 hPa 0,0 l/m² 0 min 180 W/m² 9,7 km/h (2 Bft) 100,00 %
20.04.2026 10:16 9,9 °C 11,7 °C 6,7 °C 80 % 1022,4 hPa 0,0 l/m² 0 min 246 W/m² 6,4 km/h (2 Bft) 97,87 %
20.04.2026 10:18 9,9 °C 11,1 °C 6,7 °C 80 % 1022,4 hPa 0,0 l/m² 2 min 608 W/m² 16,1 km/h (3 Bft) 100,00 %
20.04.2026 10:20 9,9 °C 12,2 °C 7,2 °C 80 % 1022,4 hPa 0,0 l/m² 2 min 575 W/m² 6,4 km/h (2 Bft) 100,00 %
20.04.2026 10:22 10,1 °C 13,3 °C 8,3 °C 80 % 1022,4 hPa 0,0 l/m² 2 min 406 W/m² 9,7 km/h (2 Bft) 97,83 %
20.04.2026 10:24 10,2 °C 15,0 °C 9,4 °C 79 % 1022,4 hPa 0,0 l/m² 2 min 672 W/m² 12,9 km/h (3 Bft) 100,00 %
20.04.2026 10:26 10,3 °C 16,7 °C 10,6 °C 79 % 1022,4 hPa 0,0 l/m² 2 min 687 W/m² 9,7 km/h (2 Bft) 100,00 %
20.04.2026 10:28 10,4 °C 18,9 °C 11,1 °C 78 % 1022,4 hPa 0,0 l/m² 2 min 719 W/m² 9,7 km/h (2 Bft) 100,00 %
20.04.2026 10:30 10,6 °C 18,3 °C 11,1 °C 78 % 1022,4 hPa 0,0 l/m² 2 min 735 W/m² 9,7 km/h (2 Bft) 100,00 %
20.04.2026 10:32 10,7 °C 17,2 °C 10,6 °C 77 % 1022,4 hPa 0,0 l/m² 2 min 735 W/m² 12,9 km/h (3 Bft) 97,87 %
20.04.2026 10:34 10,7 °C 14,4 °C 10,0 °C 76 % 1022,5 hPa 0,0 l/m² 2 min 364 W/m² 12,9 km/h (3 Bft) 100,00 %
20.04.2026 10:36 10,7 °C 13,3 °C 9,4 °C 76 % 1022,4 hPa 0,0 l/m² 2 min 449 W/m² 12,9 km/h (3 Bft) 100,00 %
20.04.2026 10:38 10,7 °C 13,3 °C 8,9 °C 76 % 1022,4 hPa 0,0 l/m² 2 min 545 W/m² 16,1 km/h (3 Bft) 100,00 %
20.04.2026 10:40 10,7 °C 12,2 °C 8,9 °C 75 % 1022,5 hPa 0,0 l/m² 2 min 478 W/m² 19,3 km/h (3 Bft) 91,30 %
20.04.2026 10:42 10,7 °C 11,7 °C 7,8 °C 76 % 1022,5 hPa 0,0 l/m² 0 min 160 W/m² 12,9 km/h (3 Bft) 95,74 %
20.04.2026 10:44 10,6 °C 12,2 °C 7,8 °C 75 % 1022,4 hPa 0,0 l/m² 0 min 165 W/m² 9,7 km/h (2 Bft) 95,74 %
20.04.2026 10:46 10,4 °C 12,2 °C 7,8 °C 75 % 1022,4 hPa 0,0 l/m² 0 min 214 W/m² 12,9 km/h (3 Bft) 95,74 %
20.04.2026 10:48 10,4 °C 14,4 °C 7,8 °C 75 % 1022,4 hPa 0,0 l/m² 2 min 332 W/m² 12,9 km/h (3 Bft) 98,00 %
20.04.2026 10:50 10,4 °C 13,9 °C 7,8 °C 75 % 1022,4 hPa 0,0 l/m² 2 min 332 W/m² 16,1 km/h (3 Bft) 96,00 %
20.04.2026 10:52 10,4 °C 13,9 °C 7,8 °C 74 % 1022,4 hPa 0,0 l/m² 2 min 332 W/m² 16,1 km/h (3 Bft) 95,74 %
20.04.2026 10:54 10,6 °C 14,4 °C 7,8 °C 74 % 1022,4 hPa 0,0 l/m² 2 min 551 W/m² 12,9 km/h (3 Bft) 97,83 %
20.04.2026 10:56 10,6 °C 15,0 °C 7,8 °C 74 % 1022,4 hPa 0,0 l/m² 2 min 812 W/m² 19,3 km/h (3 Bft) 97,87 %
20.04.2026 10:58 10,8 °C 14,4 °C 8,3 °C 72 % 1022,4 hPa 0,0 l/m² 2 min 749 W/m² 9,7 km/h (2 Bft) 95,74 %
20.04.2026 11:00 10,9 °C 13,9 °C 8,3 °C 72 % 1022,4 hPa 0,0 l/m² 2 min 576 W/m² 12,9 km/h (3 Bft) 97,56 %
20.04.2026 11:02 10,9 °C 14,4 °C 7,8 °C 72 % 1022,5 hPa 0,0 l/m² 0 min 281 W/m² 22,5 km/h (4 Bft) 95,74 %
20.04.2026 11:04 11,1 °C 14,4 °C 8,3 °C 71 % 1022,4 hPa 0,0 l/m² 2 min 334 W/m² 12,9 km/h (3 Bft) 95,74 %
20.04.2026 11:06 11,2 °C 14,4 °C 8,3 °C 72 % 1022,4 hPa 0,0 l/m² 2 min 641 W/m² 19,3 km/h (3 Bft) 95,74 %
20.04.2026 11:08 11,2 °C 14,4 °C 8,3 °C 71 % 1022,5 hPa 0,0 l/m² 2 min 831 W/m² 22,5 km/h (4 Bft) 93,62 %
20.04.2026 11:10 11,3 °C 15,0 °C 8,3 °C 71 % 1022,4 hPa 0,0 l/m² 2 min 702 W/m² 16,1 km/h (3 Bft) 95,74 %
20.04.2026 11:12 11,4 °C 15,6 °C 8,3 °C 71 % 1022,4 hPa 0,0 l/m² 2 min 811 W/m² 16,1 km/h (3 Bft) 95,74 %
20.04.2026 11:14 11,4 °C 14,4 °C 8,3 °C 71 % 1022,4 hPa 0,0 l/m² 2 min 539 W/m² 12,9 km/h (3 Bft) 95,92 %
20.04.2026 11:16 11,5 °C 15,0 °C 8,3 °C 70 % 1022,3 hPa 0,0 l/m² 2 min 362 W/m² 19,3 km/h (3 Bft) 94,00 %
20.04.2026 11:18 11,6 °C 16,7 °C 8,3 °C 70 % 1022,3 hPa 0,0 l/m² 2 min 362 W/m² 12,9 km/h (3 Bft) 92,00 %
20.04.2026 11:20 11,6 °C 15,6 °C 8,3 °C 70 % 1022,4 hPa 0,0 l/m² 2 min 357 W/m² 12,9 km/h (3 Bft) 100,00 %
20.04.2026 11:22 11,6 °C 15,6 °C 8,3 °C 70 % 1022,2 hPa 0,0 l/m² 2 min 348 W/m² 12,9 km/h (3 Bft) 93,62 %
20.04.2026 11:24 11,6 °C 15,6 °C 8,9 °C 70 % 1022,3 hPa 0,0 l/m² 2 min 498 W/m² 16,1 km/h (3 Bft) 95,74 %
20.04.2026 11:26 11,6 °C 15,0 °C 8,9 °C 70 % 1022,3 hPa 0,0 l/m² 2 min 676 W/m² 12,9 km/h (3 Bft) 97,87 %
20.04.2026 11:28 11,6 °C 13,9 °C 8,9 °C 70 % 1022,3 hPa 0,0 l/m² 2 min 550 W/m² 19,3 km/h (3 Bft) 96,00 %
20.04.2026 11:30 11,5 °C 13,3 °C 8,3 °C 69 % 1022,3 hPa 0,0 l/m² 0 min 206 W/m² 22,5 km/h (4 Bft) 97,87 %
20.04.2026 11:32 11,4 °C 12,8 °C 8,3 °C 69 % 1022,3 hPa 0,0 l/m² 0 min 270 W/m² 22,5 km/h (4 Bft) 97,96 %
20.04.2026 11:34 11,3 °C 12,2 °C 7,8 °C 68 % 1022,3 hPa 0,0 l/m² 0 min 169 W/m² 12,9 km/h (3 Bft) 97,87 %
20.04.2026 11:36 11,3 °C 11,7 °C 7,8 °C 68 % 1022,3 hPa 0,0 l/m² 0 min 125 W/m² 12,9 km/h (3 Bft) 95,74 %
20.04.2026 11:38 11,2 °C 11,7 °C 7,2 °C 68 % 1022,3 hPa 0,0 l/m² 0 min 126 W/m² 16,1 km/h (3 Bft) 95,74 %
20.04.2026 11:40 11,1 °C 11,7 °C 7,2 °C 67 % 1022,3 hPa 0,0 l/m² 0 min 145 W/m² 12,9 km/h (3 Bft) 93,62 %
20.04.2026 11:42 11,1 °C 12,8 °C 7,8 °C 67 % 1022,2 hPa 0,0 l/m² 2 min 512 W/m² 16,1 km/h (3 Bft) 95,74 %
20.04.2026 11:44 11,0 °C 13,3 °C 8,3 °C 68 % 1022,2 hPa 0,0 l/m² 2 min 822 W/m² 9,7 km/h (2 Bft) 95,74 %
20.04.2026 11:46 11,1 °C 13,9 °C 8,9 °C 68 % 1022,2 hPa 0,0 l/m² 2 min 818 W/m² 12,9 km/h (3 Bft) 95,74 %
20.04.2026 11:48 11,2 °C 14,4 °C 10,0 °C 68 % 1022,2 hPa 0,0 l/m² 2 min 837 W/m² 19,3 km/h (3 Bft) 100,00 %
20.04.2026 11:50 11,3 °C 15,0 °C 11,1 °C 67 % 1022,2 hPa 0,0 l/m² 2 min 855 W/m² 19,3 km/h (3 Bft) 97,87 %
20.04.2026 11:52 11,4 °C 15,0 °C 12,2 °C 66 % 1022,1 hPa 0,0 l/m² 2 min 853 W/m² 16,1 km/h (3 Bft) 100,00 %
20.04.2026 11:54 11,6 °C 16,1 °C 13,3 °C 66 % 1022,1 hPa 0,0 l/m² 2 min 862 W/m² 9,7 km/h (2 Bft) 100,00 %
20.04.2026 11:56 11,8 °C 18,3 °C 13,9 °C 67 % 1022,1 hPa 0,0 l/m² 2 min 886 W/m² 12,9 km/h (3 Bft) 95,12 %
20.04.2026 11:58 12,1 °C 19,4 °C 14,4 °C 67 % 1022,1 hPa 0,0 l/m² 2 min 896 W/m² 22,5 km/h (4 Bft) 100,00 %
20.04.2026 12:00 12,2 °C 16,7 °C 12,8 °C 65 % 1022,1 hPa 0,0 l/m² 2 min 788 W/m² 25,7 km/h (4 Bft) 100,00 %
20.04.2026 12:02 12,2 °C 15,6 °C 11,7 °C 64 % 1022,1 hPa 0,0 l/m² 0 min 150 W/m² 19,3 km/h (3 Bft) 100,00 %
20.04.2026 12:04 12,2 °C 13,9 °C 10,0 °C 62 % 1022,1 hPa 0,0 l/m² 0 min 134 W/m² 16,1 km/h (3 Bft) 96,00 %
20.04.2026 12:08 12,1 °C 18,3 °C 10,6 °C 63 % 1022,0 hPa 0,0 l/m² 2 min 493 W/m² 16,1 km/h (3 Bft) 100,00 %
20.04.2026 12:10 12,1 °C 21,1 °C 12,2 °C 63 % 1022,1 hPa 0,0 l/m² 2 min 879 W/m² 12,9 km/h (3 Bft) 100,00 %
20.04.2026 12:12 12,3 °C 20,6 °C 12,8 °C 62 % 1022,0 hPa 0,0 l/m² 2 min 716 W/m² 12,9 km/h (3 Bft) 97,87 %
20.04.2026 12:14 12,4 °C 20,6 °C 12,8 °C 63 % 1022,1 hPa 0,0 l/m² 2 min 579 W/m² 16,1 km/h (3 Bft) 98,00 %
20.04.2026 12:16 12,6 °C 21,7 °C 12,8 °C 62 % 1022,0 hPa 0,0 l/m² 2 min 519 W/m² 22,5 km/h (4 Bft) 100,00 %
20.04.2026 12:18 12,7 °C 22,8 °C 13,9 °C 61 % 1022,0 hPa 0,0 l/m² 2 min 770 W/m² 16,1 km/h (3 Bft) 100,00 %
20.04.2026 12:20 12,8 °C 22,8 °C 14,4 °C 61 % 1022,0 hPa 0,0 l/m² 2 min 918 W/m² 16,1 km/h (3 Bft) 97,83 %
20.04.2026 12:22 12,9 °C 22,2 °C 14,4 °C 61 % 1022,0 hPa 0,0 l/m² 2 min 894 W/m² 19,3 km/h (3 Bft) 100,00 %
20.04.2026 12:24 13,1 °C 21,7 °C 14,4 °C 61 % 1021,9 hPa 0,0 l/m² 0 min 243 W/m² 12,9 km/h (3 Bft) 97,87 %
20.04.2026 12:26 13,3 °C 22,8 °C 15,6 °C 60 % 1022,0 hPa 0,0 l/m² 2 min 731 W/m² 9,7 km/h (2 Bft) 95,74 %
20.04.2026 12:28 13,4 °C 23,3 °C 16,7 °C 60 % 1021,9 hPa 0,0 l/m² 2 min 885 W/m² 16,1 km/h (3 Bft) 97,37 %
20.04.2026 12:30 13,5 °C 22,8 °C 17,2 °C 60 % 1021,9 hPa 0,0 l/m² 2 min 900 W/m² 12,9 km/h (3 Bft) 96,61 %
20.04.2026 12:32 13,6 °C 22,2 °C 17,2 °C 60 % 1022,0 hPa 0,0 l/m² 2 min 912 W/m² 16,1 km/h (3 Bft) 97,87 %
20.04.2026 12:34 13,7 °C 22,2 °C 17,8 °C 60 % 1021,9 hPa 0,0 l/m² 2 min 979 W/m² 16,1 km/h (3 Bft) 100,00 %
20.04.2026 12:36 13,8 °C 20,6 °C 17,2 °C 59 % 1021,9 hPa 0,0 l/m² 2 min 550 W/m² 12,9 km/h (3 Bft) 96,55 %
20.04.2026 12:38 13,8 °C 20,6 °C 16,1 °C 59 % 1021,9 hPa 0,0 l/m² 0 min 206 W/m² 9,7 km/h (2 Bft) 97,14 %
20.04.2026 12:40 13,9 °C 22,2 °C 16,7 °C 59 % 1021,9 hPa 0,0 l/m² 2 min 820 W/m² 12,9 km/h (3 Bft) 98,11 %
20.04.2026 12:42 14,0 °C 22,2 °C 16,7 °C 58 % 1021,9 hPa 0,0 l/m² 2 min 902 W/m² 22,5 km/h (4 Bft) 97,78 %
20.04.2026 12:44 13,9 °C 20,6 °C 15,6 °C 56 % 1021,8 hPa 0,0 l/m² 0 min 349 W/m² 19,3 km/h (3 Bft) 97,87 %
20.04.2026 12:46 13,9 °C 21,7 °C 16,1 °C 56 % 1021,9 hPa 0,0 l/m² 2 min 864 W/m² 32,2 km/h (5 Bft) 97,87 %
20.04.2026 12:48 13,9 °C 22,8 °C 17,2 °C 55 % 1021,8 hPa 0,0 l/m² 2 min 908 W/m² 16,1 km/h (3 Bft) 97,87 %
20.04.2026 12:50 14,0 °C 22,2 °C 17,8 °C 54 % 1021,8 hPa 0,0 l/m² 2 min 873 W/m² 12,9 km/h (3 Bft) 98,00 %
20.04.2026 12:52 14,1 °C 23,3 °C 18,3 °C 55 % 1021,8 hPa 0,0 l/m² 2 min 891 W/m² 19,3 km/h (3 Bft) 97,83 %
20.04.2026 12:54 14,2 °C 24,4 °C 18,9 °C 55 % 1021,7 hPa 0,0 l/m² 2 min 890 W/m² 9,7 km/h (2 Bft) 97,87 %
20.04.2026 12:56 14,3 °C 24,4 °C 18,9 °C 56 % 1021,8 hPa 0,0 l/m² 2 min 893 W/m² 16,1 km/h (3 Bft) 97,37 %
20.04.2026 12:58 14,3 °C 24,4 °C 18,9 °C 56 % 1021,7 hPa 0,0 l/m² 2 min 905 W/m² 19,3 km/h (3 Bft) 96,23 %
20.04.2026 13:00 14,6 °C 25,0 °C 19,4 °C 56 % 1021,7 hPa 0,0 l/m² 2 min 932 W/m² 12,9 km/h (3 Bft) 96,00 %
20.04.2026 13:02 14,7 °C 25,6 °C 19,4 °C 55 % 1021,7 hPa 0,0 l/m² 2 min 958 W/m² 6,4 km/h (2 Bft) 95,74 %
20.04.2026 13:04 14,9 °C 25,0 °C 19,4 °C 55 % 1021,6 hPa 0,0 l/m² 2 min 987 W/m² 12,9 km/h (3 Bft) 94,00 %
20.04.2026 13:06 15,1 °C 24,4 °C 18,3 °C 55 % 1021,6 hPa 0,0 l/m² 2 min 1002 W/m² 9,7 km/h (2 Bft) 95,92 %
20.04.2026 13:08 15,1 °C 23,9 °C 17,8 °C 55 % 1021,6 hPa 0,0 l/m² 2 min 1002 W/m² 12,9 km/h (3 Bft) 91,67 %
20.04.2026 13:10 15,1 °C 21,7 °C 16,7 °C 55 % 1021,6 hPa 0,0 l/m² 2 min 1002 W/m² 16,1 km/h (3 Bft) 93,88 %
20.04.2026 13:12 14,6 °C 17,8 °C 14,4 °C 54 % 1021,6 hPa 0,0 l/m² 2 min 433 W/m² 9,7 km/h (2 Bft) 95,74 %
20.04.2026 13:14 14,3 °C 16,1 °C 13,9 °C 55 % 1021,6 hPa 0,0 l/m² 0 min 188 W/m² 16,1 km/h (3 Bft) 96,00 %
20.04.2026 13:16 14,1 °C 15,0 °C 12,8 °C 55 % 1021,6 hPa 0,0 l/m² 0 min 179 W/m² 12,9 km/h (3 Bft) 95,12 %
20.04.2026 13:18 13,9 °C 14,4 °C 11,7 °C 54 % 1021,5 hPa 0,0 l/m² 0 min 177 W/m² 9,7 km/h (2 Bft) 96,00 %
20.04.2026 13:20 13,7 °C 14,4 °C 11,1 °C 55 % 1021,5 hPa 0,0 l/m² 0 min 183 W/m² 16,1 km/h (3 Bft) 96,15 %
20.04.2026 13:22 13,5 °C 13,9 °C 10,6 °C 56 % 1021,6 hPa 0,0 l/m² 0 min 199 W/m² 22,5 km/h (4 Bft) 94,74 %
20.04.2026 13:24 13,4 °C 15,6 °C 11,7 °C 56 % 1021,6 hPa 0,0 l/m² 0 min 230 W/m² 19,3 km/h (3 Bft) 96,00 %
20.04.2026 13:26 13,4 °C 16,7 °C 12,8 °C 54 % 1021,6 hPa 0,0 l/m² 0 min 364 W/m² 9,7 km/h (2 Bft) 95,45 %
20.04.2026 13:28 13,4 °C 17,2 °C 13,3 °C 52 % 1021,5 hPa 0,0 l/m² 2 min 490 W/m² 6,4 km/h (2 Bft) 95,74 %
20.04.2026 13:30 13,5 °C 20,0 °C 13,9 °C 53 % 1021,5 hPa 0,0 l/m² 2 min 641 W/m² 9,7 km/h (2 Bft) 95,74 %
20.04.2026 13:32 13,7 °C 22,2 °C 15,0 °C 54 % 1021,5 hPa 0,0 l/m² 2 min 951 W/m² 16,1 km/h (3 Bft) 95,74 %
20.04.2026 13:34 13,9 °C 23,9 °C 16,7 °C 55 % 1021,4 hPa 0,0 l/m² 2 min 778 W/m² 16,1 km/h (3 Bft) 94,00 %
20.04.2026 13:36 14,3 °C 21,7 °C 16,1 °C 54 % 1021,5 hPa 0,0 l/m² 2 min 778 W/m² 22,5 km/h (4 Bft) 93,62 %
20.04.2026 13:38 14,3 °C 18,3 °C 14,4 °C 53 % 1021,5 hPa 0,0 l/m² 0 min 369 W/m² 29,0 km/h (5 Bft) 94,00 %
20.04.2026 13:40 14,3 °C 16,7 °C 12,8 °C 52 % 1021,4 hPa 0,0 l/m² 0 min 277 W/m² 25,7 km/h (4 Bft) 93,62 %
20.04.2026 13:42 14,3 °C 19,4 °C 13,3 °C 53 % 1021,5 hPa 0,0 l/m² 0 min 281 W/m² 19,3 km/h (3 Bft) 95,92 %
20.04.2026 13:44 14,3 °C 22,2 °C 13,9 °C 54 % 1021,4 hPa 0,0 l/m² 2 min 909 W/m² 12,9 km/h (3 Bft) 97,87 %
20.04.2026 13:46 14,4 °C 20,6 °C 13,9 °C 54 % 1021,4 hPa 0,0 l/m² 2 min 852 W/m² 12,9 km/h (3 Bft) 95,74 %
20.04.2026 13:48 14,5 °C 21,7 °C 13,3 °C 54 % 1021,4 hPa 0,0 l/m² 2 min 481 W/m² 16,1 km/h (3 Bft) 95,74 %
20.04.2026 13:50 14,7 °C 23,9 °C 12,8 °C 54 % 1021,4 hPa 0,0 l/m² 2 min 934 W/m² 19,3 km/h (3 Bft) 94,29 %
20.04.2026 13:52 14,8 °C 24,4 °C 12,8 °C 53 % 1021,4 hPa 0,0 l/m² 2 min 923 W/m² 12,9 km/h (3 Bft) 96,15 %
20.04.2026 13:54 15,1 °C 25,0 °C 12,8 °C 53 % 1021,4 hPa 0,0 l/m² 2 min 911 W/m² 16,1 km/h (3 Bft) 96,00 %
20.04.2026 13:56 15,3 °C 25,0 °C 12,8 °C 53 % 1021,5 hPa 0,0 l/m² 2 min 907 W/m² 19,3 km/h (3 Bft) 94,00 %
20.04.2026 13:58 15,4 °C 25,6 °C 12,2 °C 51 % 1021,4 hPa 0,0 l/m² 2 min 909 W/m² 9,7 km/h (2 Bft) 95,65 %
20.04.2026 14:00 15,4 °C 26,7 °C 11,7 °C 51 % 1021,4 hPa 0,0 l/m² 2 min 925 W/m² 16,1 km/h (3 Bft) 95,74 %
20.04.2026 14:02 15,4 °C 25,0 °C 11,7 °C 50 % 1021,4 hPa 0,0 l/m² 2 min 901 W/m² 16,1 km/h (3 Bft) 95,74 %
20.04.2026 14:04 15,4 °C 25,6 °C 11,7 °C 50 % 1021,3 hPa 0,0 l/m² 2 min 922 W/m² 9,7 km/h (2 Bft) 93,62 %
20.04.2026 14:06 15,5 °C 26,1 °C 11,7 °C 50 % 1021,3 hPa 0,0 l/m² 2 min 927 W/m² 9,7 km/h (2 Bft) 95,74 %
20.04.2026 14:08 15,7 °C 26,1 °C 11,7 °C 49 % 1021,3 hPa 0,0 l/m² 2 min 935 W/m² 12,9 km/h (3 Bft) 97,37 %
20.04.2026 14:10 15,7 °C 22,2 °C 11,7 °C 48 % 1021,3 hPa 0,0 l/m² 2 min 795 W/m² 12,9 km/h (3 Bft) 93,62 %
20.04.2026 14:12 15,6 °C 18,9 °C 11,1 °C 46 % 1021,3 hPa 0,0 l/m² 0 min 244 W/m² 22,5 km/h (4 Bft) 96,00 %
20.04.2026 14:14 15,2 °C 19,4 °C 11,1 °C 46 % 1021,3 hPa 0,0 l/m² 0 min 330 W/m² 16,1 km/h (3 Bft) 94,00 %
20.04.2026 14:16 15,0 °C 21,7 °C 11,1 °C 47 % 1021,3 hPa 0,0 l/m² 2 min 1004 W/m² 9,7 km/h (2 Bft) 95,92 %
20.04.2026 14:18 15,1 °C 22,2 °C 11,1 °C 50 % 1021,2 hPa 0,0 l/m² 2 min 1010 W/m² 9,7 km/h (2 Bft) 95,74 %
20.04.2026 14:20 15,0 °C 19,4 °C 11,1 °C 50 % 1021,3 hPa 0,0 l/m² 0 min 272 W/m² 19,3 km/h (3 Bft) 95,74 %
20.04.2026 14:22 14,9 °C 17,8 °C 10,6 °C 50 % 1021,3 hPa 0,0 l/m² 0 min 212 W/m² 16,1 km/h (3 Bft) 95,74 %
20.04.2026 14:24 14,7 °C 16,1 °C 10,6 °C 50 % 1021,3 hPa 0,0 l/m² 0 min 206 W/m² 22,5 km/h (4 Bft) 97,37 %
20.04.2026 14:26 14,4 °C 15,0 °C 10,6 °C 50 % 1021,3 hPa 0,0 l/m² 0 min 202 W/m² 19,3 km/h (3 Bft) 97,87 %
20.04.2026 14:28 14,3 °C 14,4 °C 10,6 °C 50 % 1021,2 hPa 0,0 l/m² 0 min 205 W/m² 16,1 km/h (3 Bft) 97,87 %
20.04.2026 14:30 14,1 °C 14,4 °C 10,0 °C 50 % 1021,2 hPa 0,0 l/m² 0 min 210 W/m² 16,1 km/h (3 Bft) 97,87 %
20.04.2026 14:32 13,9 °C 13,9 °C 10,0 °C 50 % 1021,2 hPa 0,0 l/m² 0 min 221 W/m² 9,7 km/h (2 Bft) 98,00 %
20.04.2026 14:34 13,8 °C 13,9 °C 10,0 °C 51 % 1021,2 hPa 0,0 l/m² 0 min 230 W/m² 3,2 km/h (1 Bft) 97,96 %
20.04.2026 14:36 13,7 °C 13,9 °C 10,0 °C 52 % 1021,2 hPa 0,0 l/m² 0 min 236 W/m² 19,3 km/h (3 Bft) 93,62 %
20.04.2026 14:38 13,7 °C 14,4 °C 10,0 °C 53 % 1021,2 hPa 0,0 l/m² 0 min 231 W/m² 9,7 km/h (2 Bft) 97,87 %
20.04.2026 14:40 13,6 °C 13,9 °C 10,0 °C 53 % 1021,2 hPa 0,0 l/m² 0 min 232 W/m² 9,7 km/h (2 Bft) 100,00 %
20.04.2026 14:42 13,6 °C 14,4 °C 10,0 °C 54 % 1021,2 hPa 0,0 l/m² 0 min 242 W/m² 12,9 km/h (3 Bft) 97,87 %
20.04.2026 14:44 13,6 °C 14,4 °C 10,0 °C 54 % 1021,2 hPa 0,0 l/m² 0 min 251 W/m² 9,7 km/h (2 Bft) 95,74 %
20.04.2026 14:46 13,6 °C 14,4 °C 10,0 °C 54 % 1021,2 hPa 0,0 l/m² 0 min 266 W/m² 19,3 km/h (3 Bft) 97,87 %
20.04.2026 14:48 13,5 °C 15,0 °C 10,0 °C 55 % 1021,2 hPa 0,0 l/m² 0 min 270 W/m² 16,1 km/h (3 Bft) 100,00 %
20.04.2026 14:50 13,5 °C 15,6 °C 10,0 °C 55 % 1021,2 hPa 0,0 l/m² 2 min 379 W/m² 19,3 km/h (3 Bft) 97,87 %
20.04.2026 14:52 13,6 °C 15,0 °C 10,0 °C 55 % 1021,2 hPa 0,0 l/m² 0 min 269 W/m² 22,5 km/h (4 Bft) 97,87 %
20.04.2026 14:54 13,5 °C 14,4 °C 10,0 °C 54 % 1021,2 hPa 0,0 l/m² 0 min 250 W/m² 22,5 km/h (4 Bft) 97,96 %
20.04.2026 14:56 13,4 °C 14,4 °C 10,0 °C 54 % 1021,2 hPa 0,0 l/m² 0 min 256 W/m² 9,7 km/h (2 Bft) 97,87 %
20.04.2026 14:58 13,4 °C 15,0 °C 10,0 °C 55 % 1021,2 hPa 0,0 l/m² 0 min 266 W/m² 12,9 km/h (3 Bft) 96,00 %
20.04.2026 15:00 13,4 °C 15,0 °C 10,6 °C 55 % 1021,1 hPa 0,0 l/m² 0 min 321 W/m² 9,7 km/h (2 Bft) 97,87 %
20.04.2026 15:02 13,4 °C 15,6 °C 10,6 °C 56 % 1021,1 hPa 0,0 l/m² 0 min 306 W/m² 12,9 km/h (3 Bft) 98,00 %
20.04.2026 15:04 13,4 °C 16,1 °C 10,0 °C 55 % 1021,1 hPa 0,0 l/m² 0 min 285 W/m² 19,3 km/h (3 Bft) 94,74 %
20.04.2026 15:06 13,4 °C 16,1 °C 10,0 °C 55 % 1021,1 hPa 0,0 l/m² 0 min 346 W/m² 12,9 km/h (3 Bft) 98,31 %
20.04.2026 15:08 13,3 °C 16,1 °C 10,0 °C 55 % 1021,1 hPa 0,0 l/m² 0 min 281 W/m² 19,3 km/h (3 Bft) 97,37 %
20.04.2026 15:10 13,3 °C 16,1 °C 10,0 °C 55 % 1021,1 hPa 0,0 l/m² 0 min 303 W/m² 22,5 km/h (4 Bft) 97,96 %
20.04.2026 15:12 13,3 °C 17,8 °C 10,0 °C 55 % 1021,1 hPa 0,0 l/m² 2 min 358 W/m² 19,3 km/h (3 Bft) 97,87 %
20.04.2026 15:14 13,5 °C 20,0 °C 10,6 °C 55 % 1021,0 hPa 0,0 l/m² 2 min 751 W/m² 29,0 km/h (5 Bft) 97,87 %
20.04.2026 15:16 13,7 °C 21,7 °C 10,6 °C 55 % 1021,0 hPa 0,0 l/m² 2 min 781 W/m² 22,5 km/h (4 Bft) 98,00 %
20.04.2026 15:18 13,9 °C 22,8 °C 11,1 °C 55 % 1021,1 hPa 0,0 l/m² 2 min 821 W/m² 19,3 km/h (3 Bft) 97,87 %
20.04.2026 15:20 14,2 °C 23,3 °C 11,1 °C 54 % 1021,0 hPa 0,0 l/m² 2 min 808 W/m² 16,1 km/h (3 Bft) 100,00 %
20.04.2026 15:22 14,3 °C 23,9 °C 11,7 °C 54 % 1021,0 hPa 0,0 l/m² 2 min 809 W/m² 9,7 km/h (2 Bft) 100,00 %
20.04.2026 15:24 14,7 °C 23,9 °C 11,7 °C 52 % 1021,0 hPa 0,0 l/m² 2 min 803 W/m² 6,4 km/h (2 Bft) 100,00 %
20.04.2026 15:26 14,8 °C 23,9 °C 11,1 °C 51 % 1020,9 hPa 0,0 l/m² 2 min 778 W/m² 12,9 km/h (3 Bft) 100,00 %
20.04.2026 15:28 15,0 °C 24,4 °C 11,7 °C 51 % 1020,9 hPa 0,0 l/m² 2 min 779 W/m² 19,3 km/h (3 Bft) 100,00 %
20.04.2026 15:30 15,2 °C 23,9 °C 11,7 °C 52 % 1020,9 hPa 0,0 l/m² 2 min 777 W/m² 16,1 km/h (3 Bft) 100,00 %
20.04.2026 15:32 15,3 °C 22,8 °C 11,7 °C 49 % 1020,9 hPa 0,0 l/m² 2 min 778 W/m² 9,7 km/h (2 Bft) 97,87 %
20.04.2026 15:34 15,4 °C 21,7 °C 11,1 °C 47 % 1020,9 hPa 0,0 l/m² 2 min 782 W/m² 6,4 km/h (2 Bft) 100,00 %
20.04.2026 15:36 15,4 °C 22,8 °C 11,7 °C 48 % 1020,8 hPa 0,0 l/m² 2 min 787 W/m² 12,9 km/h (3 Bft) 100,00 %
20.04.2026 15:38 15,6 °C 22,2 °C 11,7 °C 50 % 1020,7 hPa 0,0 l/m² 2 min 794 W/m² 9,7 km/h (2 Bft) 100,00 %
20.04.2026 15:40 15,6 °C 21,7 °C 11,1 °C 52 % 1020,7 hPa 0,0 l/m² 2 min 806 W/m² 12,9 km/h (3 Bft) 100,00 %
20.04.2026 15:42 15,6 °C 21,7 °C 11,7 °C 53 % 1020,7 hPa 0,0 l/m² 2 min 841 W/m² 12,9 km/h (3 Bft) 100,00 %
20.04.2026 15:44 15,8 °C 23,3 °C 12,2 °C 53 % 1020,7 hPa 0,0 l/m² 2 min 881 W/m² 16,1 km/h (3 Bft) 100,00 %
20.04.2026 15:46 15,9 °C 23,3 °C 12,8 °C 52 % 1020,7 hPa 0,0 l/m² 2 min 911 W/m² 16,1 km/h (3 Bft) 100,00 %
20.04.2026 15:48 16,1 °C 23,3 °C 12,8 °C 51 % 1020,7 hPa 0,0 l/m² 2 min 923 W/m² 12,9 km/h (3 Bft) 100,00 %
20.04.2026 15:50 16,2 °C 22,8 °C 12,8 °C 51 % 1020,7 hPa 0,0 l/m² 2 min 671 W/m² 25,7 km/h (4 Bft) 100,00 %
20.04.2026 15:52 16,3 °C 22,8 °C 12,8 °C 50 % 1020,6 hPa 0,0 l/m² 2 min 668 W/m² 16,1 km/h (3 Bft) 100,00 %
20.04.2026 15:54 16,4 °C 23,9 °C 13,3 °C 49 % 1020,6 hPa 0,0 l/m² 2 min 665 W/m² 22,5 km/h (4 Bft) 100,00 %
20.04.2026 15:56 16,4 °C 22,2 °C 13,3 °C 47 % 1020,6 hPa 0,0 l/m² 2 min 662 W/m² 12,9 km/h (3 Bft) 100,00 %
20.04.2026 15:58 16,4 °C 20,6 °C 12,8 °C 48 % 1020,6 hPa 0,0 l/m² 2 min 448 W/m² 12,9 km/h (3 Bft) 100,00 %
20.04.2026 16:00 16,3 °C 18,3 °C 12,8 °C 46 % 1020,6 hPa 0,0 l/m² 0 min 288 W/m² 9,7 km/h (2 Bft) 97,87 %
20.04.2026 16:02 16,1 °C 16,7 °C 11,7 °C 45 % 1020,5 hPa 0,0 l/m² 0 min 300 W/m² 12,9 km/h (3 Bft) 100,00 %
20.04.2026 16:04 15,8 °C 16,7 °C 11,7 °C 48 % 1020,5 hPa 0,0 l/m² 0 min 241 W/m² 12,9 km/h (3 Bft) 100,00 %
20.04.2026 16:06 15,7 °C 16,7 °C 11,7 °C 48 % 1020,5 hPa 0,0 l/m² 0 min 218 W/m² 6,4 km/h (2 Bft) 100,00 %
20.04.2026 16:08 15,6 °C 16,1 °C 11,1 °C 48 % 1020,6 hPa 0,0 l/m² 0 min 211 W/m² 19,3 km/h (3 Bft) 100,00 %
20.04.2026 16:10 15,4 °C 15,6 °C 11,1 °C 47 % 1020,6 hPa 0,0 l/m² 0 min 210 W/m² 9,7 km/h (2 Bft) 100,00 %
20.04.2026 16:12 15,2 °C 15,0 °C 11,1 °C 48 % 1020,6 hPa 0,0 l/m² 0 min 212 W/m² 16,1 km/h (3 Bft) 100,00 %
20.04.2026 16:14 15,0 °C 15,0 °C 10,6 °C 48 % 1020,5 hPa 0,0 l/m² 0 min 216 W/m² 16,1 km/h (3 Bft) 100,00 %
20.04.2026 16:16 14,7 °C 15,0 °C 10,6 °C 49 % 1020,6 hPa 0,0 l/m² 0 min 220 W/m² 22,5 km/h (4 Bft) 97,87 %
20.04.2026 16:18 14,6 °C 14,4 °C 10,6 °C 50 % 1020,6 hPa 0,0 l/m² 0 min 221 W/m² 12,9 km/h (3 Bft) 100,00 %
20.04.2026 16:20 14,5 °C 14,4 °C 10,6 °C 50 % 1020,5 hPa 0,0 l/m² 0 min 222 W/m² 6,4 km/h (2 Bft) 100,00 %
20.04.2026 16:22 14,4 °C 14,4 °C 10,6 °C 51 % 1020,5 hPa 0,0 l/m² 0 min 223 W/m² 9,7 km/h (2 Bft) 100,00 %
20.04.2026 16:24 14,3 °C 14,4 °C 10,6 °C 52 % 1020,5 hPa 0,0 l/m² 0 min 225 W/m² 12,9 km/h (3 Bft) 97,87 %
20.04.2026 16:26 14,3 °C 14,4 °C 10,6 °C 53 % 1020,6 hPa 0,0 l/m² 0 min 228 W/m² 12,9 km/h (3 Bft) 100,00 %
20.04.2026 16:28 14,3 °C 15,0 °C 10,6 °C 53 % 1020,5 hPa 0,0 l/m² 0 min 225 W/m² 6,4 km/h (2 Bft) 97,87 %
20.04.2026 16:30 14,3 °C 14,4 °C 10,6 °C 53 % 1020,6 hPa 0,0 l/m² 0 min 215 W/m² 19,3 km/h (3 Bft) 96,00 %
20.04.2026 16:32 14,2 °C 14,4 °C 10,6 °C 50 % 1020,6 hPa 0,0 l/m² 0 min 208 W/m² 29,0 km/h (5 Bft) 95,74 %
20.04.2026 16:34 14,1 °C 13,9 °C 10,6 °C 49 % 1020,5 hPa 0,0 l/m² 0 min 199 W/m² 22,5 km/h (4 Bft) 98,00 %
20.04.2026 16:36 13,9 °C 14,4 °C 10,6 °C 50 % 1020,5 hPa 0,0 l/m² 0 min 189 W/m² 16,1 km/h (3 Bft) 97,14 %
20.04.2026 16:38 13,8 °C 14,4 °C 10,0 °C 50 % 1020,5 hPa 0,0 l/m² 0 min 178 W/m² 12,9 km/h (3 Bft) 98,00 %
20.04.2026 16:40 13,8 °C 14,4 °C 10,0 °C 52 % 1020,5 hPa 0,0 l/m² 0 min 166 W/m² 12,9 km/h (3 Bft) 97,83 %
20.04.2026 16:42 13,7 °C 14,4 °C 10,0 °C 52 % 1020,5 hPa 0,0 l/m² 0 min 158 W/m² 12,9 km/h (3 Bft) 97,87 %
20.04.2026 16:44 13,6 °C 14,4 °C 10,0 °C 52 % 1020,6 hPa 0,0 l/m² 0 min 156 W/m² 12,9 km/h (3 Bft) 95,74 %
20.04.2026 16:46 13,6 °C 14,4 °C 9,4 °C 52 % 1020,5 hPa 0,0 l/m² 0 min 151 W/m² 16,1 km/h (3 Bft) 96,00 %
20.04.2026 16:48 13,5 °C 14,4 °C 9,4 °C 52 % 1020,6 hPa 0,0 l/m² 0 min 140 W/m² 12,9 km/h (3 Bft) 97,87 %
20.04.2026 16:50 13,4 °C 14,4 °C 9,4 °C 52 % 1020,6 hPa 0,0 l/m² 0 min 134 W/m² 19,3 km/h (3 Bft) 97,87 %
20.04.2026 16:52 13,3 °C 14,4 °C 9,4 °C 52 % 1020,6 hPa 0,0 l/m² 0 min 129 W/m² 12,9 km/h (3 Bft) 93,62 %
20.04.2026 16:54 13,3 °C 13,9 °C 9,4 °C 53 % 1020,5 hPa 0,0 l/m² 0 min 121 W/m² 6,4 km/h (2 Bft) 95,74 %
20.04.2026 16:56 13,3 °C 13,9 °C 9,4 °C 53 % 1020,5 hPa 0,0 l/m² 0 min 121 W/m² 19,3 km/h (3 Bft) 95,92 %
20.04.2026 16:58 13,2 °C 15,0 °C 9,4 °C 54 % 1020,5 hPa 0,0 l/m² 0 min 174 W/m² 19,3 km/h (3 Bft) 95,74 %
20.04.2026 17:00 13,3 °C 17,2 °C 10,0 °C 54 % 1020,5 hPa 0,0 l/m² 2 min 603 W/m² 9,7 km/h (2 Bft) 95,74 %
20.04.2026 17:02 13,5 °C 18,9 °C 10,0 °C 53 % 1020,5 hPa 0,0 l/m² 2 min 587 W/m² 6,4 km/h (2 Bft) 91,49 %
20.04.2026 17:04 13,7 °C 19,4 °C 10,6 °C 54 % 1020,5 hPa 0,0 l/m² 2 min 582 W/m² 16,1 km/h (3 Bft) 95,74 %
20.04.2026 17:06 13,9 °C 17,8 °C 10,0 °C 52 % 1020,4 hPa 0,0 l/m² 2 min 579 W/m² 16,1 km/h (3 Bft) 97,87 %
20.04.2026 17:08 13,9 °C 18,3 °C 10,0 °C 53 % 1020,4 hPa 0,0 l/m² 2 min 578 W/m² 6,4 km/h (2 Bft) 92,00 %
20.04.2026 17:10 14,2 °C 18,9 °C 10,6 °C 53 % 1020,5 hPa 0,0 l/m² 2 min 576 W/m² 29,0 km/h (5 Bft) 97,14 %
20.04.2026 17:12 14,3 °C 18,9 °C 11,1 °C 52 % 1020,4 hPa 0,0 l/m² 2 min 564 W/m² 16,1 km/h (3 Bft) 94,00 %
20.04.2026 17:14 14,6 °C 17,8 °C 11,1 °C 52 % 1020,5 hPa 0,0 l/m² 0 min 178 W/m² 19,3 km/h (3 Bft) 95,74 %
20.04.2026 17:16 14,6 °C 16,1 °C 10,6 °C 51 % 1020,4 hPa 0,0 l/m² 0 min 103 W/m² 12,9 km/h (3 Bft) 95,65 %
20.04.2026 17:18 14,5 °C 15,6 °C 10,6 °C 51 % 1020,5 hPa 0,0 l/m² 0 min 114 W/m² 9,7 km/h (2 Bft) 93,62 %
20.04.2026 17:20 14,4 °C 14,4 °C 10,6 °C 51 % 1020,4 hPa 0,0 l/m² 0 min 129 W/m² 19,3 km/h (3 Bft) 95,74 %
20.04.2026 17:22 14,3 °C 14,4 °C 10,0 °C 50 % 1020,4 hPa 0,0 l/m² 0 min 147 W/m² 16,1 km/h (3 Bft) 95,74 %
20.04.2026 17:24 14,3 °C 14,4 °C 10,0 °C 51 % 1020,4 hPa 0,0 l/m² 0 min 171 W/m² 9,7 km/h (2 Bft) 91,49 %
20.04.2026 17:26 14,2 °C 14,4 °C 10,0 °C 51 % 1020,4 hPa 0,0 l/m² 0 min 199 W/m² 12,9 km/h (3 Bft) 93,62 %
20.04.2026 17:28 14,2 °C 16,1 °C 10,6 °C 50 % 1020,4 hPa 0,0 l/m² 2 min 290 W/m² 12,9 km/h (3 Bft) 96,23 %
20.04.2026 17:30 14,3 °C 17,8 °C 10,6 °C 52 % 1020,4 hPa 0,0 l/m² 2 min 631 W/m² 9,7 km/h (2 Bft) 97,87 %
20.04.2026 17:32 14,3 °C 19,4 °C 11,1 °C 51 % 1020,3 hPa 0,0 l/m² 2 min 634 W/m² 9,7 km/h (2 Bft) 97,37 %
20.04.2026 17:34 14,4 °C 20,0 °C 11,7 °C 50 % 1020,3 hPa 0,0 l/m² 2 min 636 W/m² 12,9 km/h (3 Bft) 98,00 %
20.04.2026 17:36 14,6 °C 20,6 °C 11,7 °C 50 % 1020,3 hPa 0,0 l/m² 2 min 636 W/m² 12,9 km/h (3 Bft) 97,87 %
20.04.2026 17:38 14,8 °C 20,6 °C 12,2 °C 50 % 1020,4 hPa 0,0 l/m² 2 min 457 W/m² 19,3 km/h (3 Bft) 97,87 %
20.04.2026 17:40 15,0 °C 20,0 °C 12,2 °C 48 % 1020,4 hPa 0,0 l/m² 2 min 618 W/m² 12,9 km/h (3 Bft) 96,00 %
20.04.2026 17:42 15,2 °C 19,4 °C 12,2 °C 48 % 1020,4 hPa 0,0 l/m² 2 min 455 W/m² 16,1 km/h (3 Bft) 98,00 %
20.04.2026 17:44 15,3 °C 18,3 °C 12,2 °C 48 % 1020,3 hPa 0,0 l/m² 2 min 272 W/m² 9,7 km/h (2 Bft) 97,87 %
20.04.2026 17:46 15,2 °C 17,2 °C 11,7 °C 47 % 1020,4 hPa 0,0 l/m² 2 min 294 W/m² 9,7 km/h (2 Bft) 97,37 %
20.04.2026 17:48 15,1 °C 16,7 °C 11,7 °C 48 % 1020,4 hPa 0,0 l/m² 2 min 352 W/m² 9,7 km/h (2 Bft) 95,74 %
20.04.2026 17:50 15,0 °C 16,1 °C 11,1 °C 48 % 1020,4 hPa 0,0 l/m² 2 min 349 W/m² 22,5 km/h (4 Bft) 97,83 %
20.04.2026 17:52 14,9 °C 16,1 °C 11,1 °C 48 % 1020,4 hPa 0,0 l/m² 2 min 275 W/m² 9,7 km/h (2 Bft) 97,87 %
20.04.2026 17:54 14,8 °C 16,1 °C 11,1 °C 50 % 1020,4 hPa 0,0 l/m² 2 min 246 W/m² 16,1 km/h (3 Bft) 95,74 %
20.04.2026 17:56 14,7 °C 15,6 °C 11,1 °C 50 % 1020,4 hPa 0,0 l/m² 2 min 216 W/m² 12,9 km/h (3 Bft) 96,23 %
20.04.2026 17:58 14,7 °C 15,6 °C 11,1 °C 50 % 1020,4 hPa 0,0 l/m² 0 min 196 W/m² 12,9 km/h (3 Bft) 97,87 %
20.04.2026 18:00 14,6 °C 15,6 °C 11,1 °C 51 % 1020,4 hPa 0,0 l/m² 0 min 182 W/m² 9,7 km/h (2 Bft) 98,00 %
20.04.2026 18:02 14,6 °C 15,0 °C 11,1 °C 51 % 1020,5 hPa 0,0 l/m² 0 min 179 W/m² 6,4 km/h (2 Bft) 95,74 %
20.04.2026 18:04 14,6 °C 15,6 °C 11,1 °C 52 % 1020,4 hPa 0,0 l/m² 0 min 178 W/m² 12,9 km/h (3 Bft) 97,83 %
20.04.2026 18:06 14,4 °C 14,4 °C 10,6 °C 52 % 1020,4 hPa 0,0 l/m² 0 min 174 W/m² 6,4 km/h (2 Bft) 97,87 %
20.04.2026 18:08 14,3 °C 14,4 °C 10,6 °C 51 % 1020,4 hPa 0,0 l/m² 0 min 173 W/m² 29,0 km/h (5 Bft) 97,87 %
20.04.2026 18:10 14,3 °C 14,4 °C 10,6 °C 52 % 1020,4 hPa 0,0 l/m² 0 min 170 W/m² 16,1 km/h (3 Bft) 97,37 %
20.04.2026 18:12 14,3 °C 13,9 °C 10,0 °C 51 % 1020,4 hPa 0,0 l/m² 0 min 169 W/m² 6,4 km/h (2 Bft) 98,00 %
20.04.2026 18:14 14,2 °C 14,4 °C 10,6 °C 52 % 1020,4 hPa 0,0 l/m² 0 min 177 W/m² 9,7 km/h (2 Bft) 97,87 %
20.04.2026 18:16 14,1 °C 14,4 °C 10,0 °C 52 % 1020,4 hPa 0,0 l/m² 2 min 184 W/m² 12,9 km/h (3 Bft) 97,87 %
20.04.2026 18:18 14,1 °C 14,4 °C 10,0 °C 52 % 1020,4 hPa 0,0 l/m² 2 min 178 W/m² 6,4 km/h (2 Bft) 95,74 %
20.04.2026 18:20 14,1 °C 14,4 °C 10,6 °C 51 % 1020,3 hPa 0,0 l/m² 2 min 190 W/m² 16,1 km/h (3 Bft) 97,87 %
20.04.2026 18:22 14,1 °C 16,1 °C 10,6 °C 51 % 1020,3 hPa 0,0 l/m² 2 min 249 W/m² 9,7 km/h (2 Bft) 97,83 %
20.04.2026 18:24 14,1 °C 15,6 °C 10,6 °C 51 % 1020,3 hPa 0,0 l/m² 2 min 305 W/m² 9,7 km/h (2 Bft) 97,87 %
20.04.2026 18:26 14,1 °C 15,0 °C 10,6 °C 51 % 1020,3 hPa 0,0 l/m² 2 min 164 W/m² 3,2 km/h (1 Bft) 100,00 %
20.04.2026 18:28 14,1 °C 15,0 °C 10,6 °C 51 % 1020,3 hPa 0,0 l/m² 0 min 150 W/m² 12,9 km/h (3 Bft) 100,00 %
20.04.2026 18:30 14,1 °C 14,4 °C 10,6 °C 50 % 1020,3 hPa 0,0 l/m² 0 min 138 W/m² 6,4 km/h (2 Bft) 97,87 %
20.04.2026 18:32 14,1 °C 13,9 °C 10,0 °C 51 % 1020,4 hPa 0,0 l/m² 0 min 128 W/m² 6,4 km/h (2 Bft) 100,00 %
20.04.2026 18:34 14,0 °C 13,9 °C 10,0 °C 49 % 1020,3 hPa 0,0 l/m² 0 min 123 W/m² 6,4 km/h (2 Bft) 98,00 %
20.04.2026 18:36 13,9 °C 13,9 °C 10,0 °C 49 % 1020,3 hPa 0,0 l/m² 0 min 118 W/m² 9,7 km/h (2 Bft) 100,00 %
20.04.2026 18:38 13,9 °C 13,3 °C 10,0 °C 49 % 1020,3 hPa 0,0 l/m² 0 min 116 W/m² 6,4 km/h (2 Bft) 97,87 %
20.04.2026 18:40 13,9 °C 13,3 °C 10,0 °C 50 % 1020,3 hPa 0,0 l/m² 0 min 116 W/m² 9,7 km/h (2 Bft) 97,87 %
20.04.2026 18:42 13,8 °C 13,3 °C 9,4 °C 51 % 1020,3 hPa 0,0 l/m² 0 min 114 W/m² 6,4 km/h (2 Bft) 100,00 %
20.04.2026 18:44 13,8 °C 13,3 °C 9,4 °C 52 % 1020,3 hPa 0,0 l/m² 0 min 111 W/m² 9,7 km/h (2 Bft) 100,00 %
20.04.2026 18:46 13,7 °C 13,3 °C 9,4 °C 52 % 1020,3 hPa 0,0 l/m² 0 min 105 W/m² 9,7 km/h (2 Bft) 100,00 %
20.04.2026 18:48 13,6 °C 13,3 °C 9,4 °C 52 % 1020,3 hPa 0,0 l/m² 0 min 101 W/m² 12,9 km/h (3 Bft) 98,00 %
20.04.2026 18:50 13,6 °C 13,3 °C 9,4 °C 52 % 1020,3 hPa 0,0 l/m² 0 min 98 W/m² 9,7 km/h (2 Bft) 95,74 %
20.04.2026 18:52 13,5 °C 12,8 °C 9,4 °C 52 % 1020,3 hPa 0,0 l/m² 0 min 94 W/m² 12,9 km/h (3 Bft) 100,00 %
20.04.2026 18:54 13,4 °C 12,8 °C 9,4 °C 53 % 1020,3 hPa 0,0 l/m² 0 min 88 W/m² 12,9 km/h (3 Bft) 100,00 %
20.04.2026 18:56 13,3 °C 12,8 °C 9,4 °C 53 % 1020,3 hPa 0,0 l/m² 0 min 85 W/m² 16,1 km/h (3 Bft) 97,87 %
20.04.2026 18:58 13,3 °C 12,8 °C 9,4 °C 54 % 1020,4 hPa 0,0 l/m² 0 min 81 W/m² 6,4 km/h (2 Bft) 97,83 %
20.04.2026 19:00 13,2 °C 12,8 °C 8,9 °C 54 % 1020,3 hPa 0,0 l/m² 0 min 77 W/m² 16,1 km/h (3 Bft) 97,87 %
20.04.2026 19:02 13,2 °C 12,8 °C 8,9 °C 54 % 1020,4 hPa 0,0 l/m² 0 min 74 W/m² 12,9 km/h (3 Bft) 97,87 %
20.04.2026 19:04 13,1 °C 12,8 °C 8,9 °C 54 % 1020,3 hPa 0,0 l/m² 0 min 70 W/m² 12,9 km/h (3 Bft) 98,00 %
20.04.2026 19:06 13,1 °C 12,8 °C 8,9 °C 54 % 1020,3 hPa 0,0 l/m² 0 min 66 W/m² 22,5 km/h (4 Bft) 97,87 %
20.04.2026 19:08 13,0 °C 12,8 °C 8,9 °C 54 % 1020,3 hPa 0,0 l/m² 0 min 62 W/m² 3,2 km/h (1 Bft) 97,87 %
20.04.2026 19:10 13,0 °C 12,8 °C 8,9 °C 54 % 1020,3 hPa 0,0 l/m² 0 min 59 W/m² 9,7 km/h (2 Bft) 97,87 %
20.04.2026 19:12 12,9 °C 12,2 °C 8,9 °C 53 % 1020,3 hPa 0,0 l/m² 0 min 54 W/m² 9,7 km/h (2 Bft) 94,29 %
20.04.2026 19:14 12,9 °C 12,2 °C 8,9 °C 54 % 1020,3 hPa 0,0 l/m² 0 min 53 W/m² 16,1 km/h (3 Bft) 97,87 %
20.04.2026 19:16 12,8 °C 12,2 °C 8,9 °C 55 % 1020,3 hPa 0,0 l/m² 0 min 50 W/m² 6,4 km/h (2 Bft) 97,83 %
20.04.2026 19:18 12,8 °C 12,2 °C 8,9 °C 56 % 1020,3 hPa 0,0 l/m² 0 min 49 W/m² 6,4 km/h (2 Bft) 98,31 %
20.04.2026 19:20 12,8 °C 12,2 °C 8,9 °C 56 % 1020,3 hPa 0,0 l/m² 0 min 47 W/m² 9,7 km/h (2 Bft) 94,74 %
20.04.2026 19:22 12,7 °C 12,2 °C 8,9 °C 56 % 1020,3 hPa 0,0 l/m² 0 min 45 W/m² 12,9 km/h (3 Bft) 93,62 %
20.04.2026 19:24 12,7 °C 12,2 °C 8,3 °C 56 % 1020,4 hPa 0,0 l/m² 0 min 44 W/m² 16,1 km/h (3 Bft) 95,74 %
20.04.2026 19:26 12,6 °C 11,7 °C 8,3 °C 57 % 1020,4 hPa 0,0 l/m² 0 min 42 W/m² 16,1 km/h (3 Bft) 95,74 %
20.04.2026 19:28 12,6 °C 11,7 °C 8,3 °C 57 % 1020,3 hPa 0,0 l/m² 0 min 39 W/m² 9,7 km/h (2 Bft) 93,62 %
20.04.2026 19:30 12,5 °C 11,7 °C 8,3 °C 57 % 1020,3 hPa 0,0 l/m² 0 min 38 W/m² 6,4 km/h (2 Bft) 51,06 %
20.04.2026 19:32 12,4 °C 11,7 °C 8,3 °C 58 % 1020,3 hPa 0,0 l/m² 0 min 35 W/m² 9,7 km/h (2 Bft) 97,83 %
20.04.2026 19:34 12,4 °C 11,7 °C 8,3 °C 59 % 1020,3 hPa 0,0 l/m² 0 min 33 W/m² 9,7 km/h (2 Bft) 97,87 %
20.04.2026 19:36 12,4 °C 11,7 °C 8,3 °C 59 % 1020,4 hPa 0,0 l/m² 0 min 32 W/m² 6,4 km/h (2 Bft) 97,87 %
20.04.2026 19:38 12,4 °C 11,7 °C 8,3 °C 60 % 1020,3 hPa 0,0 l/m² 0 min 30 W/m² 9,7 km/h (2 Bft) 95,74 %
20.04.2026 19:40 12,3 °C 11,7 °C 8,3 °C 60 % 1020,4 hPa 0,0 l/m² 0 min 26 W/m² 6,4 km/h (2 Bft) 98,00 %
20.04.2026 19:42 12,3 °C 11,7 °C 8,3 °C 59 % 1020,4 hPa 0,0 l/m² 0 min 25 W/m² 6,4 km/h (2 Bft) 97,87 %
20.04.2026 19:44 12,2 °C 11,7 °C 7,8 °C 60 % 1020,4 hPa 0,0 l/m² 0 min 25 W/m² 12,9 km/h (3 Bft) 95,74 %
20.04.2026 19:46 12,2 °C 11,7 °C 7,8 °C 59 % 1020,4 hPa 0,0 l/m² 0 min 23 W/m² 9,7 km/h (2 Bft) 97,87 %
20.04.2026 19:48 12,1 °C 11,7 °C 7,8 °C 60 % 1020,5 hPa 0,0 l/m² 0 min 23 W/m² 9,7 km/h (2 Bft) 95,65 %
20.04.2026 19:50 12,1 °C 11,7 °C 7,8 °C 61 % 1020,5 hPa 0,0 l/m² 0 min 22 W/m² 3,2 km/h (1 Bft) 97,87 %
20.04.2026 19:52 12,1 °C 11,7 °C 7,8 °C 60 % 1020,4 hPa 0,0 l/m² 0 min 21 W/m² 6,4 km/h (2 Bft) 98,00 %
20.04.2026 19:54 12,1 °C 11,1 °C 7,8 °C 61 % 1020,5 hPa 0,0 l/m² 0 min 21 W/m² 12,9 km/h (3 Bft) 97,37 %
20.04.2026 19:56 12,0 °C 11,1 °C 7,8 °C 63 % 1020,4 hPa 0,0 l/m² 0 min 19 W/m² 19,3 km/h (3 Bft) 98,15 %
20.04.2026 19:58 11,9 °C 11,1 °C 7,8 °C 66 % 1020,5 hPa 0,0 l/m² 0 min 19 W/m² 6,4 km/h (2 Bft) 97,87 %
20.04.2026 20:00 11,9 °C 11,1 °C 7,8 °C 67 % 1020,5 hPa 0,0 l/m² 0 min 17 W/m² 9,7 km/h (2 Bft) 93,62 %
20.04.2026 20:02 11,8 °C 10,6 °C 7,2 °C 68 % 1020,6 hPa 0,0 l/m² 0 min 15 W/m² 9,7 km/h (2 Bft) 97,96 %
20.04.2026 20:04 11,8 °C 10,6 °C 7,2 °C 69 % 1020,6 hPa 0,0 l/m² 0 min 14 W/m² 9,7 km/h (2 Bft) 97,22 %
20.04.2026 20:06 11,7 °C 10,6 °C 7,2 °C 69 % 1020,6 hPa 0,0 l/m² 0 min 12 W/m² 12,9 km/h (3 Bft) 98,21 %
20.04.2026 20:08 11,6 °C 10,6 °C 7,2 °C 70 % 1020,6 hPa 0,0 l/m² 0 min 12 W/m² 9,7 km/h (2 Bft) 93,62 %
20.04.2026 20:10 11,6 °C 10,6 °C 7,2 °C 71 % 1020,6 hPa 0,0 l/m² 0 min 11 W/m² 12,9 km/h (3 Bft) 97,37 %
20.04.2026 20:12 11,5 °C 10,6 °C 7,2 °C 71 % 1020,6 hPa 0,0 l/m² 0 min 9 W/m² 6,4 km/h (2 Bft) 100,00 %
20.04.2026 20:14 11,4 °C 10,6 °C 7,2 °C 72 % 1020,7 hPa 0,0 l/m² 0 min 9 W/m² 9,7 km/h (2 Bft) 100,00 %
20.04.2026 20:16 11,3 °C 10,6 °C 7,2 °C 72 % 1020,7 hPa 0,0 l/m² 0 min 7 W/m² 6,4 km/h (2 Bft) 96,00 %
20.04.2026 20:18 11,3 °C 10,0 °C 7,2 °C 72 % 1020,7 hPa 0,0 l/m² 0 min 7 W/m² 6,4 km/h (2 Bft) 95,74 %
20.04.2026 20:20 11,2 °C 10,0 °C 7,2 °C 72 % 1020,8 hPa 0,0 l/m² 0 min 7 W/m² 12,9 km/h (3 Bft) 95,74 %
20.04.2026 20:22 11,1 °C 10,0 °C 6,7 °C 72 % 1020,8 hPa 0,0 l/m² 0 min 5 W/m² 12,9 km/h (3 Bft) 97,96 %
20.04.2026 20:24 11,1 °C 10,0 °C 6,7 °C 72 % 1020,8 hPa 0,0 l/m² 0 min 5 W/m² 19,3 km/h (3 Bft) 97,87 %
20.04.2026 20:26 11,0 °C 10,0 °C 6,7 °C 72 % 1020,8 hPa 0,0 l/m² 0 min 3 W/m² 25,7 km/h (4 Bft) 98,00 %
20.04.2026 20:28 10,9 °C 10,0 °C 6,7 °C 72 % 1020,9 hPa 0,0 l/m² 0 min 0 W/m² 19,3 km/h (3 Bft) 95,12 %
20.04.2026 20:30 10,9 °C 10,0 °C 6,7 °C 72 % 1020,9 hPa 0,0 l/m² 0 min 0 W/m² 6,4 km/h (2 Bft) 98,00 %
20.04.2026 20:32 10,8 °C 10,0 °C 6,7 °C 72 % 1020,9 hPa 0,0 l/m² 0 min 0 W/m² 16,1 km/h (3 Bft) 98,00 %
20.04.2026 20:34 10,8 °C 10,0 °C 6,7 °C 72 % 1020,9 hPa 0,0 l/m² 0 min 0 W/m² 9,7 km/h (2 Bft) 97,37 %
20.04.2026 20:36 10,8 °C 10,0 °C 6,7 °C 72 % 1020,9 hPa 0,0 l/m² 0 min 0 W/m² 12,9 km/h (3 Bft) 98,18 %
20.04.2026 20:38 10,7 °C 10,0 °C 6,7 °C 73 % 1021,0 hPa 0,0 l/m² 0 min 0 W/m² 6,4 km/h (2 Bft) 97,44 %
20.04.2026 20:40 10,7 °C 10,0 °C 6,7 °C 73 % 1021,0 hPa 0,0 l/m² 0 min 0 W/m² 6,4 km/h (2 Bft) 93,62 %
20.04.2026 20:42 10,6 °C 9,4 °C 6,7 °C 73 % 1021,0 hPa 0,0 l/m² 0 min 0 W/m² 16,1 km/h (3 Bft) 91,84 %
20.04.2026 20:44 10,6 °C 9,4 °C 6,7 °C 73 % 1021,1 hPa 0,0 l/m² 0 min 0 W/m² 12,9 km/h (3 Bft) 97,87 %
20.04.2026 20:46 10,5 °C 9,4 °C 6,7 °C 73 % 1021,1 hPa 0,0 l/m² 0 min 0 W/m² 12,9 km/h (3 Bft) 98,00 %
20.04.2026 20:48 10,4 °C 9,4 °C 6,1 °C 73 % 1021,1 hPa 0,0 l/m² 0 min 0 W/m² 12,9 km/h (3 Bft) 97,87 %
20.04.2026 20:50 10,4 °C 9,4 °C 6,1 °C 73 % 1021,1 hPa 0,0 l/m² 0 min 0 W/m² 6,4 km/h (2 Bft) 93,62 %
20.04.2026 20:52 10,3 °C 9,4 °C 6,7 °C 73 % 1021,1 hPa 0,0 l/m² 0 min 0 W/m² 12,9 km/h (3 Bft) 91,49 %
20.04.2026 20:54 10,3 °C 9,4 °C 6,1 °C 73 % 1021,1 hPa 0,0 l/m² 0 min 0 W/m² 9,7 km/h (2 Bft) 95,65 %
20.04.2026 20:56 10,3 °C 9,4 °C 6,1 °C 73 % 1021,1 hPa 0,0 l/m² 0 min 0 W/m² 12,9 km/h (3 Bft) 97,87 %
20.04.2026 20:58 10,3 °C 9,4 °C 6,1 °C 74 % 1021,1 hPa 0,0 l/m² 0 min 0 W/m² 9,7 km/h (2 Bft) 97,87 %
20.04.2026 21:00 10,3 °C 9,4 °C 6,1 °C 74 % 1021,2 hPa 0,0 l/m² 0 min 0 W/m² 12,9 km/h (3 Bft) 97,87 %
20.04.2026 21:02 10,3 °C 9,4 °C 6,1 °C 74 % 1021,2 hPa 0,0 l/m² 0 min 0 W/m² 6,4 km/h (2 Bft) 97,87 %
20.04.2026 21:04 10,3 °C 9,4 °C 6,1 °C 74 % 1021,2 hPa 0,0 l/m² 0 min 0 W/m² 6,4 km/h (2 Bft) 97,87 %
20.04.2026 21:06 10,2 °C 9,4 °C 6,1 °C 75 % 1021,2 hPa 0,0 l/m² 0 min 0 W/m² 3,2 km/h (1 Bft) 97,87 %
20.04.2026 21:08 10,2 °C 9,4 °C 6,1 °C 75 % 1021,2 hPa 0,0 l/m² 0 min 0 W/m² 12,9 km/h (3 Bft) 97,87 %
20.04.2026 21:10 10,2 °C 9,4 °C 6,1 °C 75 % 1021,3 hPa 0,0 l/m² 0 min 0 W/m² 16,1 km/h (3 Bft) 97,87 %
20.04.2026 21:12 10,2 °C 9,4 °C 6,1 °C 75 % 1021,3 hPa 0,0 l/m² 0 min 0 W/m² 12,9 km/h (3 Bft) 95,92 %
20.04.2026 21:14 10,2 °C 9,4 °C 6,1 °C 76 % 1021,3 hPa 0,0 l/m² 0 min 0 W/m² 9,7 km/h (2 Bft) 97,87 %
20.04.2026 21:16 10,1 °C 9,4 °C 6,1 °C 76 % 1021,3 hPa 0,0 l/m² 0 min 0 W/m² 12,9 km/h (3 Bft) 97,87 %
20.04.2026 21:18 10,1 °C 9,4 °C 6,1 °C 75 % 1021,3 hPa 0,0 l/m² 0 min 0 W/m² 12,9 km/h (3 Bft) 100,00 %
20.04.2026 21:20 10,1 °C 9,4 °C 6,1 °C 75 % 1021,3 hPa 0,0 l/m² 0 min 0 W/m² 9,7 km/h (2 Bft) 100,00 %
20.04.2026 21:22 10,0 °C 9,4 °C 6,1 °C 75 % 1021,4 hPa 0,0 l/m² 0 min 0 W/m² 12,9 km/h (3 Bft) 100,00 %
20.04.2026 21:24 10,0 °C 8,9 °C 6,1 °C 75 % 1021,4 hPa 0,0 l/m² 0 min 0 W/m² 6,4 km/h (2 Bft) 98,00 %
20.04.2026 21:26 10,0 °C 8,9 °C 6,1 °C 75 % 1021,4 hPa 0,0 l/m² 0 min 0 W/m² 6,4 km/h (2 Bft) 100,00 %
20.04.2026 21:28 10,0 °C 8,9 °C 6,1 °C 76 % 1021,4 hPa 0,0 l/m² 0 min 0 W/m² 9,7 km/h (2 Bft) 100,00 %
20.04.2026 21:30 9,9 °C 8,9 °C 6,1 °C 75 % 1021,4 hPa 0,0 l/m² 0 min 0 W/m² 9,7 km/h (2 Bft) 97,96 %
20.04.2026 21:32 9,9 °C 8,9 °C 6,1 °C 75 % 1021,4 hPa 0,0 l/m² 0 min 0 W/m² 9,7 km/h (2 Bft) 100,00 %
20.04.2026 21:34 9,9 °C 8,9 °C 6,1 °C 75 % 1021,5 hPa 0,0 l/m² 0 min 0 W/m² 9,7 km/h (2 Bft) 100,00 %
20.04.2026 21:36 9,9 °C 8,9 °C 6,1 °C 76 % 1021,5 hPa 0,0 l/m² 0 min 0 W/m² 3,2 km/h (1 Bft) 97,87 %
20.04.2026 21:38 9,8 °C 8,9 °C 6,1 °C 76 % 1021,5 hPa 0,0 l/m² 0 min 0 W/m² 6,4 km/h (2 Bft) 100,00 %
20.04.2026 21:40 9,8 °C 8,9 °C 5,6 °C 76 % 1021,5 hPa 0,0 l/m² 0 min 0 W/m² 12,9 km/h (3 Bft) 100,00 %
20.04.2026 21:42 9,8 °C 8,9 °C 5,6 °C 76 % 1021,5 hPa 0,0 l/m² 0 min 0 W/m² 16,1 km/h (3 Bft) 100,00 %
20.04.2026 21:44 9,8 °C 8,9 °C 5,6 °C 76 % 1021,5 hPa 0,0 l/m² 0 min 0 W/m² 9,7 km/h (2 Bft) 100,00 %
20.04.2026 21:46 9,7 °C 8,9 °C 5,6 °C 76 % 1021,6 hPa 0,0 l/m² 0 min 0 W/m² 6,4 km/h (2 Bft) 100,00 %
20.04.2026 21:48 9,7 °C 8,9 °C 5,6 °C 76 % 1021,6 hPa 0,0 l/m² 0 min 0 W/m² 6,4 km/h (2 Bft) 100,00 %
20.04.2026 21:50 9,7 °C 8,9 °C 5,6 °C 76 % 1021,6 hPa 0,0 l/m² 0 min 0 W/m² 12,9 km/h (3 Bft) 100,00 %
20.04.2026 21:52 9,7 °C 8,9 °C 5,6 °C 76 % 1021,6 hPa 0,0 l/m² 0 min 0 W/m² 3,2 km/h (1 Bft) 100,00 %
20.04.2026 21:54 9,7 °C 8,9 °C 5,6 °C 76 % 1021,6 hPa 0,0 l/m² 0 min 0 W/m² 3,2 km/h (1 Bft) 100,00 %
20.04.2026 21:56 9,7 °C 8,9 °C 5,6 °C 76 % 1021,6 hPa 0,0 l/m² 0 min 0 W/m² 3,2 km/h (1 Bft) 100,00 %
20.04.2026 21:58 9,7 °C 8,9 °C 5,6 °C 76 % 1021,6 hPa 0,0 l/m² 0 min 0 W/m² 3,2 km/h (1 Bft) 100,00 %
20.04.2026 22:00 9,6 °C 8,3 °C 5,6 °C 76 % 1021,6 hPa 0,0 l/m² 0 min 0 W/m² 6,4 km/h (2 Bft) 100,00 %
20.04.2026 22:02 9,6 °C 8,3 °C 5,6 °C 76 % 1021,6 hPa 0,0 l/m² 0 min 0 W/m² 3,2 km/h (1 Bft) 97,83 %
20.04.2026 22:04 9,6 °C 8,3 °C 5,6 °C 77 % 1021,6 hPa 0,0 l/m² 0 min 0 W/m² 3,2 km/h (1 Bft) 100,00 %
20.04.2026 22:06 9,6 °C 8,3 °C 5,6 °C 77 % 1021,6 hPa 0,0 l/m² 0 min 0 W/m² 3,2 km/h (1 Bft) 100,00 %
20.04.2026 22:08 9,6 °C 8,3 °C 5,6 °C 77 % 1021,6 hPa 0,0 l/m² 0 min 0 W/m² 3,2 km/h (1 Bft) 100,00 %
20.04.2026 22:10 9,5 °C 8,3 °C 5,6 °C 77 % 1021,6 hPa 0,0 l/m² 0 min 0 W/m² 6,4 km/h (2 Bft) 100,00 %
20.04.2026 22:12 9,5 °C 8,3 °C 5,6 °C 77 % 1021,6 hPa 0,0 l/m² 0 min 0 W/m² 3,2 km/h (1 Bft) 100,00 %
20.04.2026 22:14 9,4 °C 8,3 °C 5,6 °C 77 % 1021,6 hPa 0,0 l/m² 0 min 0 W/m² 0,0 km/h (0 Bft) 100,00 %
20.04.2026 22:16 9,4 °C 8,3 °C 5,6 °C 77 % 1021,6 hPa 0,0 l/m² 0 min 0 W/m² 3,2 km/h (1 Bft) 100,00 %
20.04.2026 22:18 9,4 °C 8,3 °C 5,6 °C 77 % 1021,6 hPa 0,0 l/m² 0 min 0 W/m² 6,4 km/h (2 Bft) 97,87 %
20.04.2026 22:20 9,4 °C 8,3 °C 5,6 °C 77 % 1021,6 hPa 0,0 l/m² 0 min 0 W/m² 12,9 km/h (3 Bft) 97,87 %
20.04.2026 22:22 9,4 °C 8,3 °C 5,6 °C 78 % 1021,7 hPa 0,0 l/m² 0 min 0 W/m² 12,9 km/h (3 Bft) 100,00 %
20.04.2026 22:24 9,3 °C 8,3 °C 5,6 °C 77 % 1021,6 hPa 0,0 l/m² 0 min 0 W/m² 3,2 km/h (1 Bft) 97,87 %
20.04.2026 22:26 9,3 °C 8,3 °C 5,6 °C 78 % 1021,7 hPa 0,0 l/m² 0 min 0 W/m² 3,2 km/h (1 Bft) 97,87 %
20.04.2026 22:28 9,3 °C 8,3 °C 5,6 °C 78 % 1021,7 hPa 0,0 l/m² 0 min 0 W/m² 9,7 km/h (2 Bft) 97,87 %
20.04.2026 22:30 9,3 °C 8,3 °C 5,6 °C 78 % 1021,7 hPa 0,0 l/m² 0 min 0 W/m² 12,9 km/h (3 Bft) 100,00 %
20.04.2026 22:32 9,3 °C 8,3 °C 5,6 °C 78 % 1021,6 hPa 0,0 l/m² 0 min 0 W/m² 6,4 km/h (2 Bft) 97,87 %
20.04.2026 22:34 9,3 °C 8,3 °C 5,6 °C 78 % 1021,6 hPa 0,0 l/m² 0 min 0 W/m² 3,2 km/h (1 Bft) 93,62 %
20.04.2026 22:36 9,3 °C 8,3 °C 5,6 °C 78 % 1021,6 hPa 0,0 l/m² 0 min 0 W/m² 6,4 km/h (2 Bft) 93,62 %
20.04.2026 22:38 9,3 °C 8,3 °C 5,6 °C 78 % 1021,7 hPa 0,0 l/m² 0 min 0 W/m² 6,4 km/h (2 Bft) 91,49 %
20.04.2026 22:40 9,3 °C 8,3 °C 5,6 °C 78 % 1021,7 hPa 0,0 l/m² 0 min 0 W/m² 9,7 km/h (2 Bft) 93,48 %
20.04.2026 22:42 9,2 °C 8,3 °C 5,6 °C 78 % 1021,7 hPa 0,0 l/m² 0 min 0 W/m² 6,4 km/h (2 Bft) 93,62 %
20.04.2026 22:44 9,2 °C 8,3 °C 5,0 °C 78 % 1021,7 hPa 0,0 l/m² 0 min 0 W/m² 9,7 km/h (2 Bft) 94,00 %
20.04.2026 22:46 9,2 °C 8,3 °C 5,0 °C 78 % 1021,7 hPa 0,0 l/m² 0 min 0 W/m² 9,7 km/h (2 Bft) 93,62 %
20.04.2026 22:48 9,2 °C 8,3 °C 5,0 °C 78 % 1021,7 hPa 0,0 l/m² 0 min 0 W/m² 6,4 km/h (2 Bft) 93,62 %
20.04.2026 22:50 9,2 °C 8,3 °C 5,0 °C 79 % 1021,7 hPa 0,0 l/m² 0 min 0 W/m² 6,4 km/h (2 Bft) 93,62 %
20.04.2026 22:52 9,2 °C 8,3 °C 5,0 °C 79 % 1021,7 hPa 0,0 l/m² 0 min 0 W/m² 9,7 km/h (2 Bft) 93,62 %
20.04.2026 22:54 9,1 °C 8,3 °C 5,0 °C 79 % 1021,8 hPa 0,0 l/m² 0 min 0 W/m² 6,4 km/h (2 Bft) 91,49 %
20.04.2026 22:56 9,1 °C 8,3 °C 5,0 °C 79 % 1021,8 hPa 0,0 l/m² 0 min 0 W/m² 12,9 km/h (3 Bft) 93,48 %
20.04.2026 22:58 9,1 °C 8,3 °C 5,0 °C 79 % 1021,7 hPa 0,0 l/m² 0 min 0 W/m² 3,2 km/h (1 Bft) 93,62 %
20.04.2026 23:00 9,1 °C 8,3 °C 5,0 °C 79 % 1021,8 hPa 0,0 l/m² 0 min 0 W/m² 6,4 km/h (2 Bft) 93,62 %
20.04.2026 23:02 9,1 °C 8,3 °C 5,0 °C 79 % 1021,8 hPa 0,0 l/m² 0 min 0 W/m² 9,7 km/h (2 Bft) 95,74 %
20.04.2026 23:04 9,0 °C 8,3 °C 5,0 °C 79 % 1021,8 hPa 0,0 l/m² 0 min 0 W/m² 3,2 km/h (1 Bft) 52,27 %
20.04.2026 23:06 9,0 °C 8,3 °C 5,0 °C 80 % 1021,8 hPa 0,0 l/m² 0 min 0 W/m² 3,2 km/h (1 Bft) 93,62 %
20.04.2026 23:08 9,0 °C 8,3 °C 5,0 °C 80 % 1021,8 hPa 0,0 l/m² 0 min 0 W/m² 9,7 km/h (2 Bft) 95,74 %
20.04.2026 23:10 8,9 °C 8,3 °C 5,0 °C 80 % 1021,8 hPa 0,0 l/m² 0 min 0 W/m² 3,2 km/h (1 Bft) 97,87 %
20.04.2026 23:12 8,9 °C 8,3 °C 5,0 °C 80 % 1021,9 hPa 0,0 l/m² 0 min 0 W/m² 3,2 km/h (1 Bft) 95,65 %
20.04.2026 23:14 8,8 °C 7,8 °C 5,0 °C 80 % 1021,8 hPa 0,0 l/m² 0 min 0 W/m² 19,3 km/h (3 Bft) 97,87 %
20.04.2026 23:16 8,8 °C 7,8 °C 5,0 °C 80 % 1021,9 hPa 0,0 l/m² 0 min 0 W/m² 6,4 km/h (2 Bft) 97,87 %
20.04.2026 23:18 8,8 °C 7,8 °C 5,0 °C 80 % 1021,9 hPa 0,0 l/m² 0 min 0 W/m² 9,7 km/h (2 Bft) 97,87 %
20.04.2026 23:20 8,8 °C 7,8 °C 5,0 °C 80 % 1021,8 hPa 0,0 l/m² 0 min 0 W/m² 12,9 km/h (3 Bft) 95,74 %
20.04.2026 23:22 8,8 °C 7,8 °C 5,0 °C 80 % 1021,8 hPa 0,0 l/m² 0 min 0 W/m² 3,2 km/h (1 Bft) 97,87 %
20.04.2026 23:24 8,8 °C 7,8 °C 5,0 °C 81 % 1021,9 hPa 0,0 l/m² 0 min 0 W/m² 9,7 km/h (2 Bft) 97,87 %
20.04.2026 23:26 8,8 °C 7,8 °C 5,0 °C 81 % 1021,9 hPa 0,0 l/m² 0 min 0 W/m² 12,9 km/h (3 Bft) 97,87 %
20.04.2026 23:28 8,7 °C 7,8 °C 5,0 °C 80 % 1021,8 hPa 0,0 l/m² 0 min 0 W/m² 3,2 km/h (1 Bft) 97,83 %
20.04.2026 23:30 8,7 °C 7,8 °C 5,0 °C 81 % 1021,8 hPa 0,0 l/m² 0 min 0 W/m² 9,7 km/h (2 Bft) 100,00 %
20.04.2026 23:32 8,7 °C 7,8 °C 5,0 °C 81 % 1021,9 hPa 0,0 l/m² 0 min 0 W/m² 16,1 km/h (3 Bft) 100,00 %
20.04.2026 23:34 8,7 °C 7,8 °C 5,0 °C 81 % 1021,9 hPa 0,0 l/m² 0 min 0 W/m² 6,4 km/h (2 Bft) 100,00 %
20.04.2026 23:36 8,7 °C 7,8 °C 4,4 °C 81 % 1021,9 hPa 0,0 l/m² 0 min 0 W/m² 3,2 km/h (1 Bft) 97,87 %
20.04.2026 23:38 8,7 °C 7,8 °C 4,4 °C 81 % 1021,9 hPa 0,0 l/m² 0 min 0 W/m² 6,4 km/h (2 Bft) 100,00 %
20.04.2026 23:40 8,7 °C 7,8 °C 4,4 °C 81 % 1021,9 hPa 0,0 l/m² 0 min 0 W/m² 6,4 km/h (2 Bft) 100,00 %
20.04.2026 23:42 8,6 °C 7,8 °C 4,4 °C 81 % 1021,9 hPa 0,0 l/m² 0 min 0 W/m² 12,9 km/h (3 Bft) 100,00 %
20.04.2026 23:44 8,6 °C 7,8 °C 4,4 °C 81 % 1021,9 hPa 0,0 l/m² 0 min 0 W/m² 6,4 km/h (2 Bft) 100,00 %
20.04.2026 23:46 8,6 °C 7,8 °C 4,4 °C 81 % 1021,9 hPa 0,0 l/m² 0 min 0 W/m² 3,2 km/h (1 Bft) 97,87 %
20.04.2026 23:48 8,6 °C 7,8 °C 4,4 °C 81 % 1021,9 hPa 0,0 l/m² 0 min 0 W/m² 3,2 km/h (1 Bft) 97,83 %
20.04.2026 23:50 8,6 °C 7,8 °C 4,4 °C 82 % 1021,9 hPa 0,0 l/m² 0 min 0 W/m² 3,2 km/h (1 Bft) 100,00 %
20.04.2026 23:52 8,6 °C 7,8 °C 4,4 °C 82 % 1021,9 hPa 0,0 l/m² 0 min 0 W/m² 12,9 km/h (3 Bft) 100,00 %
20.04.2026 23:54 8,6 °C 7,8 °C 5,0 °C 82 % 1022,0 hPa 0,0 l/m² 0 min 0 W/m² 3,2 km/h (1 Bft) 100,00 %
20.04.2026 23:56 8,6 °C 7,8 °C 4,4 °C 82 % 1021,9 hPa 0,0 l/m² 0 min 0 W/m² 0,0 km/h (0 Bft) 100,00 %
20.04.2026 23:58 8,6 °C 7,8 °C 4,4 °C 82 % 1021,9 hPa 0,0 l/m² 0 min 0 W/m² 6,4 km/h (2 Bft) 100,00 %
_ Min-Zeit 06:32 05:30 05:06 16:02 17:32 - - - 00:02 19:30
Minimum _ 4,3 °C 3,3 °C 0,6 °C 45 % 1020,3 hPa - - - 0,0 km/h (0 Bft) 51,06 %
_ Max-Zeit 15:54 14:00 13:00 08:06 01:26 00:00 08:42 14:18 12:46 00:00
Maximum _ 16,4 °C 26,7 °C 19,4 °C 96 % 1022,8 hPa 0,0 l/m² 2 min 1010 W/m² 32,2 km/h
W-NW (5 Bft)
100,00 %
Durchschnitt _ 9,8 °C 11,0 °C 6,5 °C 74 % 1021,7 hPa #0,0 l/m² #6:14 h 346 W/m² 8,5 km/h (2 Bft) 97,30 %
© 2026 W. Hausmann